Wetterdaten: Freitag, 14.12.2018
Datum Zeit Temp. Aussen Temp. o. S. +5cm Feuchte Auss Luftdruck Regen Sonnenschein Regendauer Solar Windben Empfang
14.12.2018 00:00 1,1 C 0,6 C 0,0 C 91 % 1019,1 hPa 0,0 l/m 0 min 0 min 0 W/m 3,2 km/h (1 Bft) 97,83 %
14.12.2018 00:02 1,1 C 0,6 C 0,0 C 91 % 1019,1 hPa 0,0 l/m 0 min 0 min 0 W/m 6,4 km/h (2 Bft) 97,37 %
14.12.2018 00:04 1,1 C 0,6 C 0,0 C 91 % 1019,1 hPa 0,0 l/m 0 min 0 min 0 W/m 6,4 km/h (2 Bft) 100,00 %
14.12.2018 00:07 1,0 C 0,6 C 0,0 C 91 % 1019,2 hPa 0,0 l/m 0 min 0 min 0 W/m 6,4 km/h (2 Bft) 95,71 %
14.12.2018 00:08 1,1 C 0,6 C -0,6 C 91 % 1019,2 hPa 0,0 l/m 0 min 0 min 0 W/m 3,2 km/h (1 Bft) 100,00 %
14.12.2018 00:10 1,0 C 0,6 C 0,0 C 91 % 1019,2 hPa 0,0 l/m 0 min 0 min 0 W/m 6,4 km/h (2 Bft) 97,87 %
14.12.2018 00:12 1,0 C 0,6 C 0,0 C 91 % 1019,1 hPa 0,0 l/m 0 min 0 min 0 W/m 6,4 km/h (2 Bft) 93,48 %
14.12.2018 00:14 1,0 C 0,6 C 0,0 C 91 % 1019,1 hPa 0,0 l/m 0 min 0 min 0 W/m 6,4 km/h (2 Bft) 97,87 %
14.12.2018 00:16 1,0 C 0,6 C 0,0 C 91 % 1019,1 hPa 0,0 l/m 0 min 0 min 0 W/m 6,4 km/h (2 Bft) 97,87 %
14.12.2018 00:18 1,0 C 0,6 C 0,0 C 91 % 1019,2 hPa 0,0 l/m 0 min 0 min 0 W/m 12,9 km/h (3 Bft) 97,87 %
14.12.2018 00:20 1,0 C 0,6 C 0,0 C 91 % 1019,1 hPa 0,0 l/m 0 min 0 min 0 W/m 9,7 km/h (2 Bft) 97,87 %
14.12.2018 00:22 0,9 C 0,6 C 0,0 C 91 % 1019,1 hPa 0,0 l/m 0 min 0 min 0 W/m 6,4 km/h (2 Bft) 97,87 %
14.12.2018 00:24 0,9 C 0,6 C 0,0 C 91 % 1019,1 hPa 0,0 l/m 0 min 0 min 0 W/m 6,4 km/h (2 Bft) 97,83 %
14.12.2018 00:26 0,9 C 0,6 C 0,0 C 91 % 1019,1 hPa 0,0 l/m 0 min 0 min 0 W/m 6,4 km/h (2 Bft) 100,00 %
14.12.2018 00:28 0,9 C 0,6 C 0,0 C 91 % 1019,1 hPa 0,0 l/m 0 min 0 min 0 W/m 9,7 km/h (2 Bft) 100,00 %
14.12.2018 00:30 0,9 C 0,6 C 0,0 C 91 % 1019,1 hPa 0,0 l/m 0 min 0 min 0 W/m 3,2 km/h (1 Bft) 100,00 %
14.12.2018 00:32 0,9 C 0,6 C 0,0 C 91 % 1019,1 hPa 0,0 l/m 0 min 0 min 0 W/m 6,4 km/h (2 Bft) 97,87 %
14.12.2018 00:34 0,9 C 0,6 C 0,0 C 91 % 1019,1 hPa 0,0 l/m 0 min 0 min 0 W/m 3,2 km/h (1 Bft) 100,00 %
14.12.2018 00:36 0,9 C 0,6 C 0,0 C 92 % 1019,1 hPa 0,0 l/m 0 min 0 min 0 W/m 6,4 km/h (2 Bft) 100,00 %
14.12.2018 00:38 0,9 C 0,6 C 0,0 C 92 % 1019,1 hPa 0,0 l/m 0 min 0 min 0 W/m 9,7 km/h (2 Bft) 100,00 %
14.12.2018 00:40 0,9 C 0,6 C 0,0 C 92 % 1019,1 hPa 0,0 l/m 0 min 0 min 0 W/m 6,4 km/h (2 Bft) 97,87 %
14.12.2018 00:42 0,9 C 0,6 C 0,0 C 92 % 1019,1 hPa 0,0 l/m 0 min 0 min 0 W/m 6,4 km/h (2 Bft) 97,87 %
14.12.2018 00:44 0,9 C 0,6 C 0,0 C 92 % 1019,1 hPa 0,0 l/m 0 min 0 min 0 W/m 6,4 km/h (2 Bft) 97,87 %
14.12.2018 00:46 0,9 C 0,0 C -0,6 C 92 % 1019,1 hPa 0,0 l/m 0 min 0 min 0 W/m 6,4 km/h (2 Bft) 100,00 %
14.12.2018 00:48 0,9 C 0,0 C -0,6 C 92 % 1019,1 hPa 0,0 l/m 0 min 0 min 0 W/m 6,4 km/h (2 Bft) 100,00 %
14.12.2018 00:50 0,9 C 0,0 C -0,6 C 92 % 1019,1 hPa 0,0 l/m 0 min 0 min 0 W/m 6,4 km/h (2 Bft) 100,00 %
14.12.2018 00:52 0,9 C 0,0 C -0,6 C 92 % 1019,1 hPa 0,0 l/m 0 min 0 min 0 W/m 3,2 km/h (1 Bft) 100,00 %
14.12.2018 00:54 0,8 C 0,0 C -0,6 C 92 % 1019,0 hPa 0,0 l/m 0 min 0 min 0 W/m 3,2 km/h (1 Bft) 100,00 %
14.12.2018 00:56 0,8 C 0,0 C -0,6 C 92 % 1019,0 hPa 0,0 l/m 0 min 0 min 0 W/m 3,2 km/h (1 Bft) 100,00 %
14.12.2018 00:58 0,8 C 0,0 C -0,6 C 92 % 1019,0 hPa 0,0 l/m 0 min 0 min 0 W/m 6,4 km/h (2 Bft) 97,83 %
14.12.2018 01:00 0,8 C 0,0 C -0,6 C 92 % 1019,0 hPa 0,0 l/m 0 min 0 min 0 W/m 6,4 km/h (2 Bft) 97,87 %
14.12.2018 01:02 0,8 C 0,0 C -0,6 C 92 % 1019,0 hPa 0,0 l/m 0 min 0 min 0 W/m 3,2 km/h (1 Bft) 100,00 %
14.12.2018 01:04 0,7 C 0,0 C -0,6 C 92 % 1019,0 hPa 0,0 l/m 0 min 0 min 0 W/m 6,4 km/h (2 Bft) 97,87 %
14.12.2018 01:06 0,7 C 0,0 C -0,6 C 92 % 1019,0 hPa 0,0 l/m 0 min 0 min 0 W/m 6,4 km/h (2 Bft) 96,55 %
14.12.2018 01:08 0,7 C 0,0 C -0,6 C 92 % 1019,0 hPa 0,0 l/m 0 min 0 min 0 W/m 3,2 km/h (1 Bft) 97,22 %
14.12.2018 01:10 0,7 C 0,0 C -0,6 C 92 % 1019,0 hPa 0,0 l/m 0 min 0 min 0 W/m 3,2 km/h (1 Bft) 97,83 %
14.12.2018 01:12 0,7 C 0,0 C -0,6 C 92 % 1018,9 hPa 0,0 l/m 0 min 0 min 0 W/m 6,4 km/h (2 Bft) 97,87 %
14.12.2018 01:14 0,7 C 0,0 C -0,6 C 92 % 1018,9 hPa 0,0 l/m 0 min 0 min 0 W/m 9,7 km/h (2 Bft) 97,87 %
14.12.2018 01:16 0,7 C 0,0 C -0,6 C 92 % 1019,0 hPa 0,0 l/m 0 min 0 min 0 W/m 6,4 km/h (2 Bft) 95,74 %
14.12.2018 01:18 0,7 C 0,0 C -0,6 C 92 % 1018,9 hPa 0,0 l/m 0 min 0 min 0 W/m 9,7 km/h (2 Bft) 97,87 %
14.12.2018 01:20 0,7 C 0,0 C -0,6 C 92 % 1018,9 hPa 0,0 l/m 0 min 0 min 0 W/m 3,2 km/h (1 Bft) 97,87 %
14.12.2018 01:22 0,7 C 0,0 C -0,6 C 92 % 1018,9 hPa 0,0 l/m 0 min 0 min 0 W/m 3,2 km/h (1 Bft) 97,83 %
14.12.2018 01:24 0,7 C 0,6 C -0,6 C 92 % 1018,9 hPa 0,0 l/m 0 min 0 min 0 W/m 6,4 km/h (2 Bft) 95,74 %
14.12.2018 01:26 0,7 C 0,6 C -0,6 C 92 % 1019,0 hPa 0,0 l/m 0 min 0 min 0 W/m 6,4 km/h (2 Bft) 97,87 %
14.12.2018 01:28 0,7 C 0,6 C -0,6 C 92 % 1019,0 hPa 0,0 l/m 0 min 0 min 0 W/m 6,4 km/h (2 Bft) 95,74 %
14.12.2018 01:30 0,7 C 0,0 C -0,6 C 92 % 1019,0 hPa 0,0 l/m 0 min 0 min 0 W/m 6,4 km/h (2 Bft) 95,74 %
14.12.2018 01:32 0,7 C 0,0 C -0,6 C 92 % 1019,0 hPa 0,0 l/m 0 min 0 min 0 W/m 3,2 km/h (1 Bft) 93,62 %
14.12.2018 01:34 0,7 C 0,0 C -0,6 C 92 % 1019,0 hPa 0,0 l/m 0 min 0 min 0 W/m 6,4 km/h (2 Bft) 97,83 %
14.12.2018 01:36 0,7 C 0,0 C -0,6 C 92 % 1019,0 hPa 0,0 l/m 0 min 0 min 0 W/m 3,2 km/h (1 Bft) 94,92 %
14.12.2018 01:38 0,7 C 0,0 C -0,6 C 92 % 1019,0 hPa 0,0 l/m 0 min 0 min 0 W/m 6,4 km/h (2 Bft) 94,29 %
14.12.2018 01:40 0,7 C 0,0 C 0,0 C 93 % 1019,0 hPa 0,0 l/m 0 min 0 min 0 W/m 3,2 km/h (1 Bft) 95,74 %
14.12.2018 01:42 0,7 C 0,0 C 0,0 C 93 % 1019,0 hPa 0,0 l/m 0 min 0 min 0 W/m 6,4 km/h (2 Bft) 95,74 %
14.12.2018 01:44 0,7 C 0,6 C 0,0 C 93 % 1019,1 hPa 0,0 l/m 0 min 0 min 0 W/m 6,4 km/h (2 Bft) 95,65 %
14.12.2018 01:46 0,7 C 0,6 C 0,0 C 93 % 1019,0 hPa 0,0 l/m 0 min 0 min 0 W/m 6,4 km/h (2 Bft) 95,74 %
14.12.2018 01:48 0,7 C 0,6 C 0,0 C 93 % 1019,0 hPa 0,0 l/m 0 min 0 min 0 W/m 9,7 km/h (2 Bft) 95,74 %
14.12.2018 01:50 0,7 C 0,0 C 0,0 C 93 % 1018,9 hPa 0,0 l/m 0 min 0 min 0 W/m 3,2 km/h (1 Bft) 95,74 %
14.12.2018 01:52 0,7 C 0,0 C 0,0 C 93 % 1019,0 hPa 0,0 l/m 0 min 0 min 0 W/m 12,9 km/h (3 Bft) 95,74 %
14.12.2018 01:54 0,7 C 0,0 C 0,0 C 93 % 1019,0 hPa 0,0 l/m 0 min 0 min 0 W/m 3,2 km/h (1 Bft) 95,74 %
14.12.2018 01:56 0,7 C 0,0 C 0,0 C 93 % 1019,0 hPa 0,0 l/m 0 min 0 min 0 W/m 6,4 km/h (2 Bft) 93,48 %
14.12.2018 01:58 0,7 C 0,6 C 0,0 C 93 % 1019,0 hPa 0,0 l/m 0 min 0 min 0 W/m 6,4 km/h (2 Bft) 95,74 %
14.12.2018 02:00 0,7 C 0,6 C 0,0 C 93 % 1019,0 hPa 0,0 l/m 0 min 0 min 0 W/m 3,2 km/h (1 Bft) 93,62 %
14.12.2018 02:02 0,7 C 0,6 C 0,0 C 93 % 1019,0 hPa 0,0 l/m 0 min 0 min 0 W/m 6,4 km/h (2 Bft) 95,74 %
14.12.2018 02:04 0,7 C 0,6 C 0,0 C 93 % 1019,0 hPa 0,0 l/m 0 min 0 min 0 W/m 3,2 km/h (1 Bft) 95,74 %
14.12.2018 02:06 0,8 C 0,6 C 0,0 C 93 % 1019,1 hPa 0,0 l/m 0 min 0 min 0 W/m 3,2 km/h (1 Bft) 97,87 %
14.12.2018 02:08 0,8 C 0,6 C 0,0 C 93 % 1019,1 hPa 0,0 l/m 0 min 0 min 0 W/m 6,4 km/h (2 Bft) 97,83 %
14.12.2018 02:10 0,8 C 0,6 C 0,0 C 93 % 1019,1 hPa 0,0 l/m 0 min 0 min 0 W/m 3,2 km/h (1 Bft) 97,87 %
14.12.2018 02:12 0,8 C 0,6 C 0,0 C 93 % 1019,1 hPa 0,0 l/m 0 min 0 min 0 W/m 3,2 km/h (1 Bft) 97,87 %
14.12.2018 02:14 0,8 C 0,6 C 0,0 C 93 % 1019,0 hPa 0,0 l/m 0 min 0 min 0 W/m 9,7 km/h (2 Bft) 97,87 %
14.12.2018 02:16 0,8 C 0,6 C 0,0 C 93 % 1019,1 hPa 0,0 l/m 0 min 0 min 0 W/m 3,2 km/h (1 Bft) 97,87 %
14.12.2018 02:18 0,8 C 0,6 C 0,0 C 93 % 1019,1 hPa 0,0 l/m 0 min 0 min 0 W/m 6,4 km/h (2 Bft) 95,74 %
14.12.2018 02:20 0,8 C 0,6 C 0,0 C 93 % 1019,1 hPa 0,0 l/m 0 min 0 min 0 W/m 6,4 km/h (2 Bft) 93,48 %
14.12.2018 02:22 0,8 C 0,6 C 0,0 C 93 % 1019,1 hPa 0,0 l/m 0 min 0 min 0 W/m 3,2 km/h (1 Bft) 95,74 %
14.12.2018 02:24 0,8 C 0,6 C 0,0 C 93 % 1019,1 hPa 0,0 l/m 0 min 0 min 0 W/m 3,2 km/h (1 Bft) 95,74 %
14.12.2018 02:26 0,8 C 0,6 C 0,0 C 93 % 1019,2 hPa 0,0 l/m 0 min 0 min 0 W/m 6,4 km/h (2 Bft) 97,87 %
14.12.2018 02:28 0,8 C 0,6 C 0,0 C 93 % 1019,2 hPa 0,0 l/m 0 min 0 min 0 W/m 6,4 km/h (2 Bft) 97,87 %
14.12.2018 02:30 0,8 C 0,6 C 0,0 C 93 % 1019,1 hPa 0,0 l/m 0 min 0 min 0 W/m 3,2 km/h (1 Bft) 95,74 %
14.12.2018 02:32 0,8 C 0,6 C 0,0 C 93 % 1019,1 hPa 0,0 l/m 0 min 0 min 0 W/m 6,4 km/h (2 Bft) 97,83 %
14.12.2018 02:34 0,8 C 0,6 C 0,0 C 93 % 1019,2 hPa 0,0 l/m 0 min 0 min 0 W/m 6,4 km/h (2 Bft) 97,87 %
14.12.2018 02:36 0,8 C 0,6 C 0,0 C 93 % 1019,2 hPa 0,0 l/m 0 min 0 min 0 W/m 0,0 km/h (0 Bft) 94,92 %
14.12.2018 02:38 0,8 C 0,6 C 0,0 C 93 % 1019,2 hPa 0,0 l/m 0 min 0 min 0 W/m 6,4 km/h (2 Bft) 97,14 %
14.12.2018 02:40 0,8 C 0,6 C 0,0 C 93 % 1019,2 hPa 0,0 l/m 0 min 0 min 0 W/m 6,4 km/h (2 Bft) 97,87 %
14.12.2018 02:42 0,8 C 0,6 C 0,0 C 93 % 1019,2 hPa 0,0 l/m 0 min 0 min 0 W/m 9,7 km/h (2 Bft) 97,83 %
14.12.2018 02:44 0,8 C 0,6 C 0,0 C 93 % 1019,2 hPa 0,0 l/m 0 min 0 min 0 W/m 6,4 km/h (2 Bft) 97,87 %
14.12.2018 02:46 0,8 C 0,6 C 0,0 C 93 % 1019,2 hPa 0,0 l/m 0 min 0 min 0 W/m 6,4 km/h (2 Bft) 95,74 %
14.12.2018 02:48 0,8 C 0,6 C 0,0 C 93 % 1019,1 hPa 0,0 l/m 0 min 0 min 0 W/m 6,4 km/h (2 Bft) 95,74 %
14.12.2018 02:50 0,8 C 0,6 C 0,0 C 93 % 1019,1 hPa 0,0 l/m 0 min 0 min 0 W/m 6,4 km/h (2 Bft) 97,87 %
14.12.2018 02:52 0,8 C 0,6 C 0,0 C 93 % 1019,1 hPa 0,0 l/m 0 min 0 min 0 W/m 9,7 km/h (2 Bft) 95,74 %
14.12.2018 02:54 0,8 C 0,6 C 0,0 C 93 % 1019,2 hPa 0,0 l/m 0 min 0 min 0 W/m 6,4 km/h (2 Bft) 95,65 %
14.12.2018 02:56 0,8 C 0,6 C 0,0 C 93 % 1019,1 hPa 0,0 l/m 0 min 0 min 0 W/m 6,4 km/h (2 Bft) 97,87 %
14.12.2018 02:58 0,8 C 0,6 C 0,0 C 94 % 1019,1 hPa 0,0 l/m 0 min 0 min 0 W/m 16,1 km/h (3 Bft) 97,87 %
14.12.2018 03:00 0,8 C 0,6 C 0,0 C 94 % 1019,1 hPa 0,0 l/m 0 min 0 min 0 W/m 6,4 km/h (2 Bft) 97,87 %
14.12.2018 03:02 0,8 C 0,6 C 0,0 C 94 % 1019,1 hPa 0,0 l/m 0 min 0 min 0 W/m 9,7 km/h (2 Bft) 97,87 %
14.12.2018 03:04 0,8 C 0,6 C 0,0 C 94 % 1019,1 hPa 0,0 l/m 0 min 0 min 0 W/m 6,4 km/h (2 Bft) 100,00 %
14.12.2018 03:06 0,8 C 0,6 C 0,0 C 94 % 1019,0 hPa 0,0 l/m 0 min 0 min 0 W/m 6,4 km/h (2 Bft) 98,28 %
14.12.2018 03:08 0,8 C 0,6 C 0,0 C 94 % 1019,0 hPa 0,0 l/m 0 min 0 min 0 W/m 3,2 km/h (1 Bft) 100,00 %
14.12.2018 03:10 0,8 C 0,6 C 0,0 C 94 % 1019,1 hPa 0,0 l/m 0 min 0 min 0 W/m 9,7 km/h (2 Bft) 100,00 %
14.12.2018 03:12 0,8 C 0,6 C 0,0 C 94 % 1019,0 hPa 0,0 l/m 0 min 0 min 0 W/m 9,7 km/h (2 Bft) 100,00 %
14.12.2018 03:14 0,8 C 0,6 C 0,0 C 94 % 1019,1 hPa 0,0 l/m 0 min 0 min 0 W/m 9,7 km/h (2 Bft) 97,87 %
14.12.2018 03:16 0,8 C 0,6 C 0,0 C 94 % 1019,1 hPa 0,0 l/m 0 min 0 min 0 W/m 9,7 km/h (2 Bft) 100,00 %
14.12.2018 03:18 0,8 C 0,6 C 0,0 C 94 % 1019,0 hPa 0,0 l/m 0 min 0 min 0 W/m 6,4 km/h (2 Bft) 100,00 %
14.12.2018 03:20 0,8 C 0,6 C 0,0 C 94 % 1019,0 hPa 0,0 l/m 0 min 0 min 0 W/m 9,7 km/h (2 Bft) 100,00 %
14.12.2018 03:22 0,8 C 0,6 C 0,0 C 93 % 1019,0 hPa 0,0 l/m 0 min 0 min 0 W/m 9,7 km/h (2 Bft) 100,00 %
14.12.2018 03:24 0,8 C 0,6 C 0,0 C 93 % 1019,0 hPa 0,0 l/m 0 min 0 min 0 W/m 6,4 km/h (2 Bft) 97,87 %
14.12.2018 03:26 0,8 C 0,6 C 0,0 C 93 % 1019,0 hPa 0,0 l/m 0 min 0 min 0 W/m 6,4 km/h (2 Bft) 97,87 %
14.12.2018 03:28 0,8 C 0,0 C 0,0 C 93 % 1019,0 hPa 0,0 l/m 0 min 0 min 0 W/m 9,7 km/h (2 Bft) 100,00 %
14.12.2018 03:30 0,8 C 0,0 C 0,0 C 93 % 1018,9 hPa 0,0 l/m 0 min 0 min 0 W/m 9,7 km/h (2 Bft) 97,83 %
14.12.2018 03:32 0,8 C 0,0 C 0,0 C 93 % 1019,0 hPa 0,0 l/m 0 min 0 min 0 W/m 6,4 km/h (2 Bft) 100,00 %
14.12.2018 03:34 0,8 C 0,0 C 0,0 C 93 % 1019,0 hPa 0,0 l/m 0 min 0 min 0 W/m 6,4 km/h (2 Bft) 100,00 %
14.12.2018 03:36 0,8 C 0,0 C 0,0 C 93 % 1018,9 hPa 0,0 l/m 0 min 0 min 0 W/m 6,4 km/h (2 Bft) 100,00 %
14.12.2018 03:38 0,7 C 0,0 C 0,0 C 93 % 1018,9 hPa 0,0 l/m 0 min 0 min 0 W/m 6,4 km/h (2 Bft) 97,87 %
14.12.2018 03:40 0,7 C 0,0 C 0,0 C 93 % 1018,9 hPa 0,0 l/m 0 min 0 min 0 W/m 9,7 km/h (2 Bft) 100,00 %
14.12.2018 03:42 0,7 C 0,0 C 0,0 C 93 % 1018,8 hPa 0,0 l/m 0 min 0 min 0 W/m 9,7 km/h (2 Bft) 100,00 %
14.12.2018 03:44 0,7 C 0,0 C 0,0 C 93 % 1018,9 hPa 0,0 l/m 0 min 0 min 0 W/m 9,7 km/h (2 Bft) 100,00 %
14.12.2018 03:46 0,7 C 0,0 C 0,0 C 93 % 1018,9 hPa 0,0 l/m 0 min 0 min 0 W/m 9,7 km/h (2 Bft) 100,00 %
14.12.2018 03:48 0,7 C 0,0 C 0,0 C 93 % 1018,9 hPa 0,0 l/m 0 min 0 min 0 W/m 9,7 km/h (2 Bft) 95,74 %
14.12.2018 03:50 0,7 C 0,0 C 0,0 C 93 % 1018,9 hPa 0,0 l/m 0 min 0 min 0 W/m 9,7 km/h (2 Bft) 100,00 %
14.12.2018 03:52 0,7 C 0,0 C 0,0 C 93 % 1018,9 hPa 0,0 l/m 0 min 0 min 0 W/m 3,2 km/h (1 Bft) 97,83 %
14.12.2018 03:54 0,7 C 0,0 C 0,0 C 93 % 1018,9 hPa 0,0 l/m 0 min 0 min 0 W/m 6,4 km/h (2 Bft) 100,00 %
14.12.2018 03:56 0,7 C 0,0 C 0,0 C 93 % 1018,9 hPa 0,0 l/m 0 min 0 min 0 W/m 9,7 km/h (2 Bft) 100,00 %
14.12.2018 03:58 0,7 C 0,0 C 0,0 C 93 % 1018,9 hPa 0,0 l/m 0 min 0 min 0 W/m 6,4 km/h (2 Bft) 97,87 %
14.12.2018 04:00 0,7 C 0,0 C 0,0 C 93 % 1018,9 hPa 0,0 l/m 0 min 0 min 0 W/m 6,4 km/h (2 Bft) 97,87 %
14.12.2018 04:02 0,7 C 0,0 C 0,0 C 93 % 1018,8 hPa 0,0 l/m 0 min 0 min 0 W/m 9,7 km/h (2 Bft) 100,00 %
14.12.2018 04:04 0,7 C 0,0 C 0,0 C 93 % 1018,9 hPa 0,0 l/m 0 min 0 min 0 W/m 19,3 km/h (3 Bft) 100,00 %
14.12.2018 04:06 0,7 C 0,0 C 0,0 C 93 % 1018,9 hPa 0,0 l/m 0 min 0 min 0 W/m 9,7 km/h (2 Bft) 97,87 %
14.12.2018 04:08 0,7 C 0,0 C 0,0 C 93 % 1018,9 hPa 0,0 l/m 0 min 0 min 0 W/m 9,7 km/h (2 Bft) 97,87 %
14.12.2018 04:10 0,7 C 0,0 C 0,0 C 93 % 1018,9 hPa 0,0 l/m 0 min 0 min 0 W/m 9,7 km/h (2 Bft) 93,62 %
14.12.2018 04:12 0,6 C 0,0 C 0,0 C 93 % 1018,9 hPa 0,0 l/m 0 min 0 min 0 W/m 6,4 km/h (2 Bft) 97,87 %
14.12.2018 04:14 0,6 C 0,0 C 0,0 C 93 % 1018,8 hPa 0,0 l/m 0 min 0 min 0 W/m 3,2 km/h (1 Bft) 100,00 %
14.12.2018 04:16 0,6 C 0,0 C 0,0 C 93 % 1018,8 hPa 0,0 l/m 0 min 0 min 0 W/m 9,7 km/h (2 Bft) 95,65 %
14.12.2018 04:18 0,6 C 0,0 C -0,6 C 93 % 1018,8 hPa 0,0 l/m 0 min 0 min 0 W/m 9,7 km/h (2 Bft) 95,74 %
14.12.2018 04:20 0,6 C 0,0 C -0,6 C 93 % 1018,8 hPa 0,0 l/m 0 min 0 min 0 W/m 9,7 km/h (2 Bft) 97,87 %
14.12.2018 04:22 0,6 C 0,0 C -0,6 C 93 % 1018,8 hPa 0,0 l/m 0 min 0 min 0 W/m 9,7 km/h (2 Bft) 97,87 %
14.12.2018 04:24 0,6 C 0,0 C 0,0 C 93 % 1018,8 hPa 0,0 l/m 0 min 0 min 0 W/m 9,7 km/h (2 Bft) 95,74 %
14.12.2018 04:26 0,6 C 0,0 C -0,6 C 94 % 1018,8 hPa 0,0 l/m 0 min 0 min 0 W/m 6,4 km/h (2 Bft) 97,87 %
14.12.2018 04:28 0,6 C 0,0 C -0,6 C 94 % 1018,8 hPa 0,0 l/m 0 min 0 min 0 W/m 6,4 km/h (2 Bft) 97,83 %
14.12.2018 04:30 0,6 C 0,0 C -0,6 C 94 % 1018,9 hPa 0,0 l/m 0 min 0 min 0 W/m 6,4 km/h (2 Bft) 97,87 %
14.12.2018 04:32 0,6 C 0,0 C -0,6 C 94 % 1018,8 hPa 0,0 l/m 0 min 0 min 0 W/m 9,7 km/h (2 Bft) 95,74 %
14.12.2018 04:34 0,6 C 0,0 C -0,6 C 94 % 1018,8 hPa 0,0 l/m 0 min 0 min 0 W/m 6,4 km/h (2 Bft) 95,74 %
14.12.2018 04:36 0,5 C 0,0 C -0,6 C 94 % 1018,8 hPa 0,0 l/m 0 min 0 min 0 W/m 6,4 km/h (2 Bft) 93,62 %
14.12.2018 04:38 0,5 C 0,0 C -0,6 C 94 % 1018,8 hPa 0,0 l/m 0 min 0 min 0 W/m 3,2 km/h (1 Bft) 95,74 %
14.12.2018 04:40 0,5 C 0,0 C -0,6 C 94 % 1018,7 hPa 0,0 l/m 0 min 0 min 0 W/m 9,7 km/h (2 Bft) 95,65 %
14.12.2018 04:42 0,5 C 0,0 C -0,6 C 94 % 1018,8 hPa 0,0 l/m 0 min 0 min 0 W/m 9,7 km/h (2 Bft) 95,74 %
14.12.2018 04:44 0,5 C 0,0 C -0,6 C 94 % 1018,7 hPa 0,0 l/m 0 min 0 min 0 W/m 3,2 km/h (1 Bft) 95,74 %
14.12.2018 04:46 0,5 C 0,0 C -0,6 C 94 % 1018,8 hPa 0,0 l/m 0 min 0 min 0 W/m 6,4 km/h (2 Bft) 95,74 %
14.12.2018 04:48 0,5 C 0,0 C -0,6 C 94 % 1018,8 hPa 0,0 l/m 0 min 0 min 0 W/m 9,7 km/h (2 Bft) 93,62 %
14.12.2018 04:50 0,5 C 0,0 C -0,6 C 94 % 1018,8 hPa 0,0 l/m 0 min 0 min 0 W/m 3,2 km/h (1 Bft) 95,74 %
14.12.2018 04:52 0,5 C 0,0 C -0,6 C 94 % 1018,8 hPa 0,0 l/m 0 min 0 min 0 W/m 6,4 km/h (2 Bft) 95,65 %
14.12.2018 04:54 0,5 C 0,0 C -0,6 C 94 % 1018,8 hPa 0,0 l/m 0 min 0 min 0 W/m 3,2 km/h (1 Bft) 93,62 %
14.12.2018 04:56 0,5 C 0,0 C -0,6 C 94 % 1018,8 hPa 0,0 l/m 0 min 0 min 0 W/m 3,2 km/h (1 Bft) 93,62 %
14.12.2018 04:58 0,5 C 0,0 C -0,6 C 94 % 1018,8 hPa 0,0 l/m 0 min 0 min 0 W/m 3,2 km/h (1 Bft) 91,49 %
14.12.2018 05:00 0,5 C 0,0 C -0,6 C 94 % 1018,9 hPa 0,0 l/m 0 min 0 min 0 W/m 6,4 km/h (2 Bft) 93,62 %
14.12.2018 05:02 0,5 C 0,0 C -0,6 C 94 % 1018,9 hPa 0,0 l/m 0 min 0 min 0 W/m 9,7 km/h (2 Bft) 93,62 %
14.12.2018 05:04 0,5 C 0,0 C -0,6 C 94 % 1018,9 hPa 0,0 l/m 0 min 0 min 0 W/m 3,2 km/h (1 Bft) 93,48 %
14.12.2018 05:06 0,5 C 0,0 C -0,6 C 94 % 1018,9 hPa 0,0 l/m 0 min 0 min 0 W/m 9,7 km/h (2 Bft) 95,74 %
14.12.2018 05:08 0,5 C 0,0 C -0,6 C 94 % 1019,0 hPa 0,0 l/m 0 min 0 min 0 W/m 0,0 km/h (0 Bft) 93,62 %
14.12.2018 05:10 0,5 C 0,0 C -0,6 C 94 % 1019,0 hPa 0,0 l/m 0 min 0 min 0 W/m 3,2 km/h (1 Bft) 95,74 %
14.12.2018 05:12 0,5 C 0,0 C -0,6 C 94 % 1019,0 hPa 0,0 l/m 0 min 0 min 0 W/m 0,0 km/h (0 Bft) 97,87 %
14.12.2018 05:14 0,5 C 0,0 C -0,6 C 94 % 1019,0 hPa 0,0 l/m 0 min 0 min 0 W/m 6,4 km/h (2 Bft) 95,65 %
14.12.2018 05:19 0,5 C 0,0 C -0,6 C 94 % 1018,9 hPa 0,0 l/m 0 min 0 min 0 W/m 9,7 km/h (2 Bft) 94,87 %
14.12.2018 05:20 0,5 C 0,0 C -0,6 C 94 % 1018,9 hPa 0,0 l/m 0 min 0 min 0 W/m 0,0 km/h (0 Bft) 100,00 %
14.12.2018 05:22 0,5 C 0,0 C -0,6 C 94 % 1018,9 hPa 0,0 l/m 0 min 0 min 0 W/m 3,2 km/h (1 Bft) 95,74 %
14.12.2018 05:24 0,5 C 0,0 C -0,6 C 94 % 1018,9 hPa 0,0 l/m 0 min 0 min 0 W/m 3,2 km/h (1 Bft) 91,49 %
14.12.2018 05:26 0,5 C 0,0 C -0,6 C 94 % 1018,9 hPa 0,0 l/m 0 min 0 min 0 W/m 3,2 km/h (1 Bft) 93,48 %
14.12.2018 05:28 0,5 C 0,0 C -0,6 C 94 % 1018,9 hPa 0,0 l/m 0 min 0 min 0 W/m 3,2 km/h (1 Bft) 95,74 %
14.12.2018 05:30 0,5 C 0,0 C -0,6 C 94 % 1018,9 hPa 0,0 l/m 0 min 0 min 0 W/m 6,4 km/h (2 Bft) 95,74 %
14.12.2018 05:32 0,5 C 0,0 C -0,6 C 94 % 1018,9 hPa 0,0 l/m 0 min 0 min 0 W/m 3,2 km/h (1 Bft) 97,87 %
14.12.2018 05:34 0,5 C 0,0 C -0,6 C 94 % 1019,1 hPa 0,0 l/m 0 min 0 min 0 W/m 3,2 km/h (1 Bft) 97,87 %
14.12.2018 05:36 0,5 C 0,0 C -0,6 C 94 % 1019,1 hPa 0,0 l/m 0 min 0 min 0 W/m 0,0 km/h (0 Bft) 97,87 %
14.12.2018 05:38 0,5 C 0,0 C -0,6 C 94 % 1019,1 hPa 0,0 l/m 0 min 0 min 0 W/m 6,4 km/h (2 Bft) 95,65 %
14.12.2018 05:40 0,5 C 0,0 C -0,6 C 94 % 1019,1 hPa 0,0 l/m 0 min 0 min 0 W/m 6,4 km/h (2 Bft) 100,00 %
14.12.2018 05:42 0,5 C 0,0 C -0,6 C 94 % 1019,1 hPa 0,0 l/m 0 min 0 min 0 W/m 3,2 km/h (1 Bft) 100,00 %
14.12.2018 05:44 0,5 C 0,0 C -0,6 C 94 % 1019,0 hPa 0,0 l/m 0 min 0 min 0 W/m 3,2 km/h (1 Bft) 95,74 %
14.12.2018 05:46 0,5 C 0,0 C -0,6 C 94 % 1019,1 hPa 0,0 l/m 0 min 0 min 0 W/m 6,4 km/h (2 Bft) 97,87 %
14.12.2018 05:48 0,5 C 0,0 C -0,6 C 94 % 1019,1 hPa 0,0 l/m 0 min 0 min 0 W/m 6,4 km/h (2 Bft) 97,87 %
14.12.2018 05:50 0,5 C 0,0 C -0,6 C 94 % 1019,1 hPa 0,0 l/m 0 min 0 min 0 W/m 3,2 km/h (1 Bft) 100,00 %
14.12.2018 05:52 0,5 C 0,0 C -0,6 C 94 % 1019,1 hPa 0,0 l/m 0 min 0 min 0 W/m 0,0 km/h (0 Bft) 100,00 %
14.12.2018 05:54 0,5 C 0,0 C -0,6 C 94 % 1019,1 hPa 0,0 l/m 0 min 0 min 0 W/m 3,2 km/h (1 Bft) 100,00 %
14.12.2018 05:56 0,5 C 0,0 C -0,6 C 94 % 1019,1 hPa 0,0 l/m 0 min 0 min 0 W/m 0,0 km/h (0 Bft) 95,74 %
14.12.2018 05:58 0,5 C 0,0 C -0,6 C 94 % 1019,1 hPa 0,0 l/m 0 min 0 min 0 W/m 3,2 km/h (1 Bft) 97,87 %
14.12.2018 06:00 0,5 C 0,0 C -0,6 C 94 % 1019,1 hPa 0,0 l/m 0 min 0 min 0 W/m 0,0 km/h (0 Bft) 100,00 %
14.12.2018 06:02 0,5 C 0,0 C -0,6 C 94 % 1019,1 hPa 0,0 l/m 0 min 0 min 0 W/m 0,0 km/h (0 Bft) 95,74 %
14.12.2018 06:04 0,5 C 0,0 C -0,6 C 94 % 1019,1 hPa 0,0 l/m 0 min 0 min 0 W/m 3,2 km/h (1 Bft) 97,87 %
14.12.2018 06:08 0,5 C 0,0 C -0,6 C 94 % 1019,1 hPa 0,0 l/m 0 min 0 min 0 W/m 6,4 km/h (2 Bft) 100,00 %
14.12.2018 06:10 0,5 C 0,0 C -0,6 C 94 % 1019,1 hPa 0,0 l/m 0 min 0 min 0 W/m 3,2 km/h (1 Bft) 97,87 %
14.12.2018 06:12 0,5 C 0,0 C -0,6 C 94 % 1019,2 hPa 0,0 l/m 0 min 0 min 0 W/m 6,4 km/h (2 Bft) 97,83 %
14.12.2018 06:14 0,5 C 0,0 C -0,6 C 94 % 1019,2 hPa 0,0 l/m 0 min 0 min 0 W/m 6,4 km/h (2 Bft) 100,00 %
14.12.2018 06:16 0,5 C 0,0 C -0,6 C 94 % 1019,2 hPa 0,0 l/m 0 min 0 min 0 W/m 3,2 km/h (1 Bft) 100,00 %
14.12.2018 06:18 0,5 C 0,0 C -0,6 C 94 % 1019,3 hPa 0,0 l/m 0 min 0 min 0 W/m 6,4 km/h (2 Bft) 100,00 %
14.12.2018 06:20 0,5 C 0,0 C -0,6 C 94 % 1019,2 hPa 0,0 l/m 0 min 0 min 0 W/m 3,2 km/h (1 Bft) 100,00 %
14.12.2018 06:22 0,5 C 0,0 C -0,6 C 94 % 1019,2 hPa 0,0 l/m 0 min 0 min 0 W/m 6,4 km/h (2 Bft) 100,00 %
14.12.2018 06:24 0,5 C 0,0 C -0,6 C 94 % 1019,3 hPa 0,0 l/m 0 min 0 min 0 W/m 3,2 km/h (1 Bft) 97,83 %
14.12.2018 06:26 0,5 C 0,0 C -0,6 C 94 % 1019,1 hPa 0,0 l/m 0 min 0 min 0 W/m 6,4 km/h (2 Bft) 100,00 %
14.12.2018 06:28 0,5 C 0,0 C -0,6 C 94 % 1019,1 hPa 0,0 l/m 0 min 0 min 0 W/m 3,2 km/h (1 Bft) 97,87 %
14.12.2018 06:30 0,5 C 0,0 C -0,6 C 94 % 1019,1 hPa 0,0 l/m 0 min 0 min 0 W/m 3,2 km/h (1 Bft) 100,00 %
14.12.2018 06:32 0,5 C 0,0 C -0,6 C 94 % 1019,1 hPa 0,0 l/m 0 min 0 min 0 W/m 0,0 km/h (0 Bft) 97,87 %
14.12.2018 06:34 0,5 C 0,0 C -0,6 C 94 % 1019,1 hPa 0,0 l/m 0 min 0 min 0 W/m 6,4 km/h (2 Bft) 97,87 %
14.12.2018 06:36 0,5 C 0,0 C -0,6 C 94 % 1019,1 hPa 0,0 l/m 0 min 0 min 0 W/m 3,2 km/h (1 Bft) 100,00 %
14.12.2018 06:38 0,5 C 0,0 C -0,6 C 94 % 1019,1 hPa 0,0 l/m 0 min 0 min 0 W/m 3,2 km/h (1 Bft) 97,87 %
14.12.2018 06:40 0,5 C 0,0 C -0,6 C 94 % 1019,1 hPa 0,0 l/m 0 min 0 min 0 W/m 6,4 km/h (2 Bft) 95,74 %
14.12.2018 06:42 0,5 C 0,0 C -0,6 C 94 % 1019,1 hPa 0,0 l/m 0 min 0 min 0 W/m 6,4 km/h (2 Bft) 95,74 %
14.12.2018 06:44 0,5 C 0,0 C -0,6 C 94 % 1019,1 hPa 0,0 l/m 0 min 0 min 0 W/m 3,2 km/h (1 Bft) 95,74 %
14.12.2018 06:46 0,5 C 0,0 C -0,6 C 94 % 1019,2 hPa 0,0 l/m 0 min 0 min 0 W/m 3,2 km/h (1 Bft) 100,00 %
14.12.2018 06:48 0,5 C 0,0 C -0,6 C 94 % 1019,2 hPa 0,0 l/m 0 min 0 min 0 W/m 0,0 km/h (0 Bft) 100,00 %
14.12.2018 06:50 0,5 C 0,0 C -0,6 C 94 % 1019,2 hPa 0,0 l/m 0 min 0 min 0 W/m 3,2 km/h (1 Bft) 93,62 %
14.12.2018 06:52 0,5 C 0,0 C -0,6 C 94 % 1019,2 hPa 0,0 l/m 0 min 0 min 0 W/m 3,2 km/h (1 Bft) 97,87 %
14.12.2018 06:54 0,5 C 0,0 C -0,6 C 94 % 1019,2 hPa 0,0 l/m 0 min 0 min 0 W/m 6,4 km/h (2 Bft) 95,74 %
14.12.2018 06:56 0,5 C 0,0 C -0,6 C 94 % 1019,2 hPa 0,0 l/m 0 min 0 min 0 W/m 6,4 km/h (2 Bft) 89,36 %
14.12.2018 06:58 0,5 C 0,0 C -0,6 C 94 % 1019,3 hPa 0,0 l/m 0 min 0 min 0 W/m 3,2 km/h (1 Bft) 93,62 %
14.12.2018 07:00 0,5 C 0,0 C -0,6 C 94 % 1019,2 hPa 0,0 l/m 0 min 0 min 0 W/m 3,2 km/h (1 Bft) 93,48 %
14.12.2018 07:02 0,5 C 0,0 C -0,6 C 94 % 1019,2 hPa 0,0 l/m 0 min 0 min 0 W/m 3,2 km/h (1 Bft) 97,87 %
14.12.2018 07:04 0,5 C 0,0 C -0,6 C 94 % 1019,3 hPa 0,0 l/m 0 min 0 min 0 W/m 3,2 km/h (1 Bft) 95,74 %
14.12.2018 07:06 0,5 C 0,0 C -0,6 C 94 % 1019,3 hPa 0,0 l/m 0 min 0 min 0 W/m 3,2 km/h (1 Bft) 97,87 %
14.12.2018 07:08 0,5 C 0,0 C -0,6 C 94 % 1019,3 hPa 0,0 l/m 0 min 0 min 0 W/m 3,2 km/h (1 Bft) 97,87 %
14.12.2018 07:10 0,5 C 0,0 C -0,6 C 94 % 1019,3 hPa 0,0 l/m 0 min 0 min 0 W/m 0,0 km/h (0 Bft) 97,83 %
14.12.2018 07:12 0,5 C 0,0 C -0,6 C 94 % 1019,3 hPa 0,0 l/m 0 min 0 min 0 W/m 0,0 km/h (0 Bft) 97,87 %
14.12.2018 07:14 0,5 C 0,0 C -0,6 C 94 % 1019,3 hPa 0,0 l/m 0 min 0 min 0 W/m 0,0 km/h (0 Bft) 100,00 %
14.12.2018 07:16 0,5 C 0,0 C -0,6 C 94 % 1019,3 hPa 0,0 l/m 0 min 0 min 0 W/m 3,2 km/h (1 Bft) 97,87 %
14.12.2018 07:18 0,5 C 0,0 C -0,6 C 94 % 1019,3 hPa 0,0 l/m 0 min 0 min 0 W/m 3,2 km/h (1 Bft) 97,87 %
14.12.2018 07:20 0,5 C 0,0 C -0,6 C 94 % 1019,4 hPa 0,0 l/m 0 min 0 min 0 W/m 3,2 km/h (1 Bft) 93,62 %
14.12.2018 07:22 0,5 C 0,0 C -0,6 C 94 % 1019,3 hPa 0,0 l/m 0 min 0 min 0 W/m 3,2 km/h (1 Bft) 93,48 %
14.12.2018 07:24 0,5 C 0,0 C -0,6 C 94 % 1019,4 hPa 0,0 l/m 0 min 0 min 0 W/m 0,0 km/h (0 Bft) 91,49 %
14.12.2018 07:26 0,5 C 0,0 C -0,6 C 94 % 1019,4 hPa 0,0 l/m 0 min 0 min 0 W/m 3,2 km/h (1 Bft) 91,49 %
14.12.2018 07:28 0,5 C 0,0 C -0,6 C 94 % 1019,4 hPa 0,0 l/m 0 min 0 min 0 W/m 0,0 km/h (0 Bft) 97,87 %
14.12.2018 07:30 0,5 C 0,0 C -0,6 C 94 % 1019,4 hPa 0,0 l/m 0 min 0 min 0 W/m 0,0 km/h (0 Bft) 95,74 %
14.12.2018 07:32 0,5 C 0,0 C -0,6 C 94 % 1019,5 hPa 0,0 l/m 0 min 0 min 0 W/m 0,0 km/h (0 Bft) 97,87 %
14.12.2018 07:34 0,5 C 0,0 C -0,6 C 94 % 1019,5 hPa 0,0 l/m 0 min 0 min 0 W/m 0,0 km/h (0 Bft) 95,65 %
14.12.2018 07:36 0,5 C 0,0 C -0,6 C 94 % 1019,4 hPa 0,0 l/m 0 min 0 min 0 W/m 0,0 km/h (0 Bft) 95,74 %
14.12.2018 07:38 0,5 C 0,0 C -0,6 C 94 % 1019,4 hPa 0,0 l/m 0 min 0 min 0 W/m 0,0 km/h (0 Bft) 97,87 %
14.12.2018 07:40 0,5 C 0,0 C -0,6 C 94 % 1019,4 hPa 0,0 l/m 0 min 0 min 0 W/m 0,0 km/h (0 Bft) 95,74 %
14.12.2018 07:42 0,5 C 0,0 C -0,6 C 94 % 1019,5 hPa 0,0 l/m 0 min 0 min 0 W/m 0,0 km/h (0 Bft) 95,74 %
14.12.2018 07:44 0,5 C 0,0 C -0,6 C 94 % 1019,5 hPa 0,0 l/m 0 min 0 min 0 W/m 6,4 km/h (2 Bft) 95,74 %
14.12.2018 07:46 0,5 C 0,0 C -0,6 C 94 % 1019,6 hPa 0,0 l/m 0 min 0 min 0 W/m 3,2 km/h (1 Bft) 95,65 %
14.12.2018 07:48 0,5 C 0,0 C -0,6 C 94 % 1019,6 hPa 0,0 l/m 0 min 0 min 0 W/m 0,0 km/h (0 Bft) 95,74 %
14.12.2018 07:50 0,5 C 0,0 C -0,6 C 94 % 1019,6 hPa 0,0 l/m 0 min 0 min 0 W/m 3,2 km/h (1 Bft) 95,74 %
14.12.2018 07:52 0,5 C 0,0 C -0,6 C 94 % 1019,6 hPa 0,0 l/m 0 min 0 min 0 W/m 3,2 km/h (1 Bft) 95,74 %
14.12.2018 07:54 0,5 C 0,0 C -0,6 C 94 % 1019,6 hPa 0,0 l/m 0 min 0 min 0 W/m 3,2 km/h (1 Bft) 100,00 %
14.12.2018 07:56 0,5 C 0,0 C -0,6 C 94 % 1019,7 hPa 0,0 l/m 0 min 0 min 0 W/m 3,2 km/h (1 Bft) 95,74 %
14.12.2018 07:58 0,5 C 0,0 C -0,6 C 94 % 1019,7 hPa 0,0 l/m 0 min 0 min 0 W/m 3,2 km/h (1 Bft) 97,83 %
14.12.2018 08:00 0,5 C 0,0 C -0,6 C 94 % 1019,7 hPa 0,0 l/m 0 min 0 min 0 W/m 3,2 km/h (1 Bft) 95,74 %
14.12.2018 08:02 0,5 C 0,0 C -0,6 C 94 % 1019,8 hPa 0,0 l/m 0 min 0 min 0 W/m 3,2 km/h (1 Bft) 91,49 %
14.12.2018 08:04 0,5 C 0,0 C -0,6 C 94 % 1019,7 hPa 0,0 l/m 0 min 0 min 0 W/m 0,0 km/h (0 Bft) 93,62 %
14.12.2018 08:06 0,5 C 0,0 C -0,6 C 94 % 1019,8 hPa 0,0 l/m 0 min 0 min 0 W/m 3,2 km/h (1 Bft) 93,62 %
14.12.2018 08:08 0,5 C 0,0 C -0,6 C 94 % 1019,8 hPa 0,0 l/m 0 min 0 min 0 W/m 0,0 km/h (0 Bft) 93,62 %
14.12.2018 08:10 0,5 C 0,0 C -0,6 C 94 % 1019,8 hPa 0,0 l/m 0 min 0 min 0 W/m 6,4 km/h (2 Bft) 95,74 %
14.12.2018 08:12 0,5 C 0,0 C -0,6 C 94 % 1019,9 hPa 0,0 l/m 0 min 0 min 0 W/m 3,2 km/h (1 Bft) 91,49 %
14.12.2018 08:14 0,5 C 0,0 C -0,6 C 94 % 1019,9 hPa 0,0 l/m 0 min 0 min 0 W/m 3,2 km/h (1 Bft) 93,62 %
14.12.2018 08:16 0,5 C 0,0 C -0,6 C 94 % 1020,0 hPa 0,0 l/m 0 min 0 min 0 W/m 6,4 km/h (2 Bft) 95,74 %
14.12.2018 08:18 0,5 C 0,0 C 0,0 C 94 % 1020,0 hPa 0,0 l/m 0 min 0 min 0 W/m 3,2 km/h (1 Bft) 93,62 %
14.12.2018 08:20 0,5 C 0,0 C -0,6 C 94 % 1020,0 hPa 0,0 l/m 0 min 0 min 0 W/m 3,2 km/h (1 Bft) 97,83 %
14.12.2018 08:22 0,5 C 0,0 C 0,0 C 94 % 1020,0 hPa 0,0 l/m 0 min 0 min 0 W/m 6,4 km/h (2 Bft) 97,87 %
14.12.2018 08:24 0,5 C 0,0 C 0,0 C 94 % 1020,1 hPa 0,0 l/m 0 min 0 min 0 W/m 6,4 km/h (2 Bft) 97,87 %
14.12.2018 08:26 0,5 C 0,0 C 0,0 C 94 % 1020,1 hPa 0,0 l/m 0 min 0 min 0 W/m 6,4 km/h (2 Bft) 95,74 %
14.12.2018 08:28 0,5 C 0,0 C 0,0 C 94 % 1020,1 hPa 0,0 l/m 0 min 0 min 0 W/m 3,2 km/h (1 Bft) 93,62 %
14.12.2018 08:30 0,5 C 0,0 C 0,0 C 94 % 1020,1 hPa 0,0 l/m 0 min 0 min 0 W/m 6,4 km/h (2 Bft) 97,87 %
14.12.2018 08:32 0,5 C 0,0 C 0,0 C 94 % 1020,2 hPa 0,0 l/m 0 min 0 min 0 W/m 6,4 km/h (2 Bft) 95,65 %
14.12.2018 08:34 0,5 C 0,0 C 0,0 C 94 % 1020,3 hPa 0,0 l/m 0 min 0 min 0 W/m 6,4 km/h (2 Bft) 97,87 %
14.12.2018 08:36 0,5 C 0,0 C 0,0 C 94 % 1020,2 hPa 0,0 l/m 0 min 0 min 0 W/m 6,4 km/h (2 Bft) 97,87 %
14.12.2018 08:38 0,5 C 0,0 C 0,0 C 94 % 1020,2 hPa 0,0 l/m 0 min 0 min 0 W/m 6,4 km/h (2 Bft) 95,74 %
14.12.2018 08:40 0,5 C 0,6 C 0,0 C 94 % 1020,1 hPa 0,0 l/m 0 min 0 min 0 W/m 6,4 km/h (2 Bft) 97,87 %
14.12.2018 08:42 0,5 C 0,6 C 0,0 C 93 % 1020,2 hPa 0,0 l/m 0 min 0 min 0 W/m 6,4 km/h (2 Bft) 97,87 %
14.12.2018 08:44 0,5 C 0,6 C 0,0 C 93 % 1020,1 hPa 0,0 l/m 0 min 0 min 0 W/m 3,2 km/h (1 Bft) 97,78 %
14.12.2018 08:46 0,5 C 0,6 C 0,0 C 93 % 1020,2 hPa 0,0 l/m 0 min 0 min 0 W/m 6,4 km/h (2 Bft) 97,87 %
14.12.2018 08:48 0,5 C 0,6 C 0,0 C 93 % 1020,2 hPa 0,0 l/m 0 min 0 min 0 W/m 6,4 km/h (2 Bft) 97,87 %
14.12.2018 08:50 0,5 C 0,6 C 0,0 C 93 % 1020,3 hPa 0,0 l/m 0 min 0 min 0 W/m 6,4 km/h (2 Bft) 85,11 %
14.12.2018 08:52 0,5 C 0,6 C 0,0 C 93 % 1020,3 hPa 0,0 l/m 0 min 0 min 1 W/m 6,4 km/h (2 Bft) 89,36 %
14.12.2018 08:54 0,5 C 0,6 C 0,0 C 93 % 1020,3 hPa 0,0 l/m 0 min 0 min 5 W/m 6,4 km/h (2 Bft) 95,74 %
14.12.2018 08:56 0,6 C 0,6 C 0,0 C 93 % 1020,3 hPa 0,0 l/m 0 min 0 min 5 W/m 6,4 km/h (2 Bft) 97,83 %
14.12.2018 08:58 0,6 C 0,6 C 0,0 C 93 % 1020,3 hPa 0,0 l/m 0 min 0 min 5 W/m 3,2 km/h (1 Bft) 95,74 %
14.12.2018 09:00 0,6 C 0,6 C 0,0 C 93 % 1020,3 hPa 0,0 l/m 0 min 0 min 5 W/m 6,4 km/h (2 Bft) 100,00 %
14.12.2018 09:02 0,6 C 0,6 C 0,0 C 93 % 1020,3 hPa 0,0 l/m 0 min 0 min 6 W/m 6,4 km/h (2 Bft) 95,74 %
14.12.2018 09:04 0,6 C 0,6 C 0,0 C 93 % 1020,4 hPa 0,0 l/m 0 min 0 min 7 W/m 3,2 km/h (1 Bft) 100,00 %
14.12.2018 09:06 0,6 C 0,6 C 0,0 C 93 % 1020,4 hPa 0,0 l/m 0 min 0 min 7 W/m 6,4 km/h (2 Bft) 100,00 %
14.12.2018 09:08 0,6 C 0,6 C 0,0 C 93 % 1020,4 hPa 0,0 l/m 0 min 0 min 7 W/m 3,2 km/h (1 Bft) 97,83 %
14.12.2018 09:10 0,6 C 0,6 C 0,0 C 93 % 1020,5 hPa 0,0 l/m 0 min 0 min 7 W/m 0,0 km/h (0 Bft) 93,62 %
14.12.2018 09:12 0,6 C 0,6 C 0,0 C 93 % 1020,4 hPa 0,0 l/m 0 min 0 min 9 W/m 3,2 km/h (1 Bft) 91,49 %
14.12.2018 09:14 0,7 C 0,6 C 0,0 C 93 % 1020,4 hPa 0,0 l/m 0 min 0 min 9 W/m 3,2 km/h (1 Bft) 91,49 %
14.12.2018 09:16 0,7 C 0,6 C 0,0 C 93 % 1020,5 hPa 0,0 l/m 0 min 0 min 11 W/m 3,2 km/h (1 Bft) 91,49 %
14.12.2018 09:18 0,7 C 0,6 C 0,0 C 93 % 1020,5 hPa 0,0 l/m 0 min 0 min 11 W/m 3,2 km/h (1 Bft) 87,23 %
14.12.2018 09:20 0,7 C 0,6 C 0,0 C 93 % 1020,5 hPa 0,0 l/m 0 min 0 min 11 W/m 3,2 km/h (1 Bft) 93,48 %
14.12.2018 09:22 0,7 C 0,6 C 0,0 C 93 % 1020,5 hPa 0,0 l/m 0 min 0 min 12 W/m 3,2 km/h (1 Bft) 87,23 %
14.12.2018 09:24 0,7 C 0,6 C 0,0 C 93 % 1020,4 hPa 0,0 l/m 0 min 0 min 12 W/m 6,4 km/h (2 Bft) 89,36 %
14.12.2018 09:26 0,7 C 0,6 C 0,0 C 93 % 1020,5 hPa 0,0 l/m 0 min 0 min 12 W/m 6,4 km/h (2 Bft) 93,62 %
14.12.2018 09:28 0,7 C 0,6 C 0,0 C 93 % 1020,5 hPa 0,0 l/m 0 min 0 min 12 W/m 6,4 km/h (2 Bft) 97,87 %
14.12.2018 09:30 0,7 C 0,6 C 0,0 C 93 % 1020,5 hPa 0,0 l/m 0 min 0 min 12 W/m 3,2 km/h (1 Bft) 97,83 %
14.12.2018 09:32 0,7 C 0,6 C 0,0 C 93 % 1020,6 hPa 0,0 l/m 0 min 0 min 12 W/m 3,2 km/h (1 Bft) 97,87 %
14.12.2018 09:34 0,7 C 0,6 C 0,0 C 93 % 1020,5 hPa 0,0 l/m 0 min 0 min 12 W/m 3,2 km/h (1 Bft) 97,87 %
14.12.2018 09:36 0,7 C 0,6 C 0,0 C 93 % 1020,5 hPa 0,0 l/m 0 min 0 min 13 W/m 6,4 km/h (2 Bft) 97,87 %
14.12.2018 09:38 0,8 C 0,6 C 0,0 C 93 % 1020,5 hPa 0,0 l/m 0 min 0 min 14 W/m 3,2 km/h (1 Bft) 97,92 %
14.12.2018 09:40 0,8 C 0,6 C 0,0 C 93 % 1020,6 hPa 0,0 l/m 0 min 0 min 14 W/m 6,4 km/h (2 Bft) 97,87 %
14.12.2018 09:42 0,8 C 0,6 C 0,0 C 93 % 1020,5 hPa 0,0 l/m 0 min 0 min 16 W/m 3,2 km/h (1 Bft) 97,83 %
14.12.2018 09:44 0,8 C 0,6 C 0,0 C 93 % 1020,7 hPa 0,0 l/m 0 min 0 min 16 W/m 3,2 km/h (1 Bft) 95,74 %
14.12.2018 09:46 0,8 C 0,6 C 0,0 C 93 % 1020,7 hPa 0,0 l/m 0 min 0 min 16 W/m 3,2 km/h (1 Bft) 97,87 %
14.12.2018 09:48 0,8 C 0,6 C 0,0 C 93 % 1020,7 hPa 0,0 l/m 0 min 0 min 16 W/m 3,2 km/h (1 Bft) 93,62 %
14.12.2018 09:50 0,8 C 0,6 C 0,0 C 93 % 1020,6 hPa 0,0 l/m 0 min 0 min 17 W/m 3,2 km/h (1 Bft) 95,74 %
14.12.2018 09:52 0,8 C 0,6 C 0,0 C 93 % 1020,6 hPa 0,0 l/m 0 min 0 min 17 W/m 3,2 km/h (1 Bft) 95,74 %
14.12.2018 09:54 0,8 C 0,6 C 0,0 C 92 % 1020,7 hPa 0,0 l/m 0 min 0 min 16 W/m 3,2 km/h (1 Bft) 97,83 %
14.12.2018 09:56 0,8 C 0,6 C 0,0 C 93 % 1020,8 hPa 0,0 l/m 0 min 0 min 17 W/m 6,4 km/h (2 Bft) 95,74 %
14.12.2018 09:58 0,8 C 0,6 C 0,0 C 93 % 1020,7 hPa 0,0 l/m 0 min 0 min 18 W/m 6,4 km/h (2 Bft) 97,87 %
14.12.2018 10:00 0,8 C 0,6 C 0,0 C 93 % 1020,7 hPa 0,0 l/m 0 min 0 min 18 W/m 3,2 km/h (1 Bft) 97,87 %
14.12.2018 10:02 0,8 C 0,6 C 0,0 C 93 % 1020,9 hPa 0,0 l/m 0 min 0 min 17 W/m 3,2 km/h (1 Bft) 95,74 %
14.12.2018 10:04 0,8 C 0,6 C 0,0 C 93 % 1020,9 hPa 0,0 l/m 0 min 0 min 18 W/m 6,4 km/h (2 Bft) 97,87 %
14.12.2018 10:06 0,9 C 0,6 C 0,0 C 93 % 1020,9 hPa 0,0 l/m 0 min 0 min 18 W/m 3,2 km/h (1 Bft) 93,48 %
14.12.2018 10:08 0,9 C 0,6 C 0,0 C 93 % 1020,9 hPa 0,0 l/m 0 min 0 min 18 W/m 6,4 km/h (2 Bft) 95,83 %
14.12.2018 10:10 0,9 C 0,6 C 0,0 C 93 % 1021,0 hPa 0,0 l/m 0 min 0 min 19 W/m 9,7 km/h (2 Bft) 95,74 %
14.12.2018 10:12 0,9 C 0,6 C 0,0 C 92 % 1020,9 hPa 0,0 l/m 0 min 0 min 18 W/m 3,2 km/h (1 Bft) 89,36 %
14.12.2018 10:14 0,9 C 0,6 C 0,0 C 92 % 1021,0 hPa 0,0 l/m 0 min 0 min 18 W/m 6,4 km/h (2 Bft) 97,87 %
14.12.2018 10:16 0,9 C 0,6 C 0,0 C 92 % 1021,1 hPa 0,0 l/m 0 min 0 min 19 W/m 3,2 km/h (1 Bft) 97,83 %
14.12.2018 10:18 0,9 C 0,6 C 0,0 C 92 % 1021,0 hPa 0,0 l/m 0 min 0 min 20 W/m 3,2 km/h (1 Bft) 97,87 %
14.12.2018 10:20 0,9 C 0,6 C 0,0 C 92 % 1021,0 hPa 0,0 l/m 0 min 0 min 21 W/m 3,2 km/h (1 Bft) 97,87 %
14.12.2018 10:22 0,9 C 0,6 C 0,6 C 92 % 1021,0 hPa 0,0 l/m 0 min 0 min 23 W/m 3,2 km/h (1 Bft) 95,74 %
14.12.2018 10:24 0,9 C 0,6 C 0,6 C 92 % 1021,0 hPa 0,0 l/m 0 min 0 min 25 W/m 3,2 km/h (1 Bft) 97,87 %
14.12.2018 10:26 0,9 C 0,6 C 0,6 C 92 % 1021,0 hPa 0,0 l/m 0 min 0 min 25 W/m 6,4 km/h (2 Bft) 97,87 %
14.12.2018 10:28 0,9 C 1,1 C 0,6 C 92 % 1021,0 hPa 0,0 l/m 0 min 0 min 26 W/m 3,2 km/h (1 Bft) 97,83 %
14.12.2018 10:30 0,9 C 1,1 C 0,6 C 92 % 1021,0 hPa 0,0 l/m 0 min 0 min 26 W/m 3,2 km/h (1 Bft) 97,87 %
14.12.2018 10:32 0,9 C 1,1 C 0,6 C 92 % 1021,0 hPa 0,0 l/m 0 min 0 min 26 W/m 3,2 km/h (1 Bft) 91,49 %
14.12.2018 10:34 1,0 C 1,1 C 0,6 C 92 % 1021,0 hPa 0,0 l/m 0 min 0 min 27 W/m 3,2 km/h (1 Bft) 97,87 %
14.12.2018 10:36 1,0 C 1,1 C 0,6 C 92 % 1021,1 hPa 0,0 l/m 0 min 0 min 28 W/m 6,4 km/h (2 Bft) 89,36 %
14.12.2018 10:38 1,0 C 1,1 C 0,6 C 92 % 1021,0 hPa 0,0 l/m 0 min 0 min 28 W/m 6,4 km/h (2 Bft) 97,92 %
14.12.2018 10:40 1,0 C 1,1 C 0,6 C 92 % 1021,1 hPa 0,0 l/m 0 min 0 min 28 W/m 6,4 km/h (2 Bft) 97,83 %
14.12.2018 10:42 1,1 C 1,1 C 0,6 C 92 % 1021,1 hPa 0,0 l/m 0 min 0 min 29 W/m 6,4 km/h (2 Bft) 95,74 %
14.12.2018 10:44 1,0 C 1,1 C 0,6 C 92 % 1021,1 hPa 0,0 l/m 0 min 0 min 30 W/m 3,2 km/h (1 Bft) 97,87 %
14.12.2018 10:46 1,1 C 1,1 C 0,6 C 92 % 1021,1 hPa 0,0 l/m 0 min 0 min 31 W/m 3,2 km/h (1 Bft) 93,62 %
14.12.2018 10:48 1,1 C 1,1 C 0,6 C 92 % 1021,1 hPa 0,0 l/m 0 min 0 min 32 W/m 6,4 km/h (2 Bft) 100,00 %
14.12.2018 10:50 1,1 C 1,1 C 0,6 C 92 % 1021,0 hPa 0,0 l/m 0 min 0 min 33 W/m 9,7 km/h (2 Bft) 100,00 %
14.12.2018 10:52 1,1 C 1,1 C 0,6 C 92 % 1021,1 hPa 0,0 l/m 0 min 0 min 34 W/m 6,4 km/h (2 Bft) 97,83 %
14.12.2018 10:54 1,1 C 1,1 C 0,6 C 92 % 1021,0 hPa 0,0 l/m 0 min 0 min 35 W/m 3,2 km/h (1 Bft) 100,00 %
14.12.2018 10:56 1,1 C 1,1 C 0,6 C 92 % 1021,0 hPa 0,0 l/m 0 min 0 min 35 W/m 3,2 km/h (1 Bft) 100,00 %
14.12.2018 10:58 1,1 C 1,1 C 0,6 C 92 % 1021,1 hPa 0,0 l/m 0 min 0 min 35 W/m 3,2 km/h (1 Bft) 97,87 %
14.12.2018 11:00 1,1 C 1,1 C 0,6 C 92 % 1021,0 hPa 0,0 l/m 0 min 0 min 35 W/m 6,4 km/h (2 Bft) 97,87 %
14.12.2018 11:02 1,1 C 1,1 C 0,6 C 92 % 1021,0 hPa 0,0 l/m 0 min 0 min 36 W/m 6,4 km/h (2 Bft) 100,00 %
14.12.2018 11:04 1,2 C 1,1 C 0,6 C 92 % 1021,0 hPa 0,0 l/m 0 min 0 min 37 W/m 0,0 km/h (0 Bft) 100,00 %
14.12.2018 11:06 1,2 C 1,1 C 0,6 C 92 % 1021,0 hPa 0,0 l/m 0 min 0 min 37 W/m 0,0 km/h (0 Bft) 97,87 %
14.12.2018 11:08 1,2 C 1,1 C 0,6 C 92 % 1021,0 hPa 0,0 l/m 0 min 0 min 38 W/m 9,7 km/h (2 Bft) 100,00 %
14.12.2018 11:10 1,2 C 1,1 C 0,6 C 92 % 1021,1 hPa 0,0 l/m 0 min 0 min 39 W/m 3,2 km/h (1 Bft) 100,00 %
14.12.2018 11:12 1,2 C 1,1 C 0,6 C 92 % 1021,1 hPa 0,0 l/m 0 min 0 min 39 W/m 3,2 km/h (1 Bft) 100,00 %
14.12.2018 11:14 1,2 C 1,1 C 0,6 C 92 % 1021,0 hPa 0,0 l/m 0 min 0 min 39 W/m 3,2 km/h (1 Bft) 100,00 %
14.12.2018 11:16 1,2 C 1,1 C 0,6 C 92 % 1021,0 hPa 0,0 l/m 0 min 0 min 39 W/m 3,2 km/h (1 Bft) 97,87 %
14.12.2018 11:18 1,3 C 1,1 C 0,6 C 92 % 1021,0 hPa 0,0 l/m 0 min 0 min 40 W/m 3,2 km/h (1 Bft) 97,87 %
14.12.2018 11:20 1,3 C 1,1 C 0,6 C 92 % 1020,9 hPa 0,0 l/m 0 min 0 min 41 W/m 9,7 km/h (2 Bft) 95,74 %
14.12.2018 11:22 1,3 C 1,1 C 0,6 C 92 % 1020,9 hPa 0,0 l/m 0 min 0 min 42 W/m 6,4 km/h (2 Bft) 97,87 %
14.12.2018 11:24 1,3 C 1,1 C 0,6 C 92 % 1020,9 hPa 0,0 l/m 0 min 0 min 42 W/m 3,2 km/h (1 Bft) 97,87 %
14.12.2018 11:26 1,3 C 1,1 C 0,6 C 92 % 1020,9 hPa 0,0 l/m 0 min 0 min 42 W/m 0,0 km/h (0 Bft) 95,65 %
14.12.2018 11:28 1,3 C 1,1 C 1,1 C 92 % 1020,8 hPa 0,0 l/m 0 min 0 min 42 W/m 0,0 km/h (0 Bft) 97,87 %
14.12.2018 11:30 1,3 C 1,1 C 1,1 C 92 % 1020,9 hPa 0,0 l/m 0 min 0 min 42 W/m 0,0 km/h (0 Bft) 95,74 %
14.12.2018 11:32 1,3 C 1,7 C 1,1 C 92 % 1020,9 hPa 0,0 l/m 0 min 0 min 44 W/m 0,0 km/h (0 Bft) 97,87 %
14.12.2018 11:34 1,3 C 1,7 C 1,1 C 92 % 1020,9 hPa 0,0 l/m 0 min 0 min 46 W/m 0,0 km/h (0 Bft) 97,87 %
14.12.2018 11:36 1,4 C 1,7 C 1,1 C 91 % 1020,9 hPa 0,0 l/m 0 min 0 min 47 W/m 6,4 km/h (2 Bft) 95,74 %
14.12.2018 11:38 1,4 C 1,7 C 1,1 C 91 % 1020,9 hPa 0,0 l/m 0 min 0 min 47 W/m 6,4 km/h (2 Bft) 97,87 %
14.12.2018 11:40 1,4 C 1,7 C 1,1 C 91 % 1020,9 hPa 0,0 l/m 0 min 0 min 47 W/m 6,4 km/h (2 Bft) 95,74 %
14.12.2018 11:42 1,4 C 1,7 C 1,1 C 91 % 1020,8 hPa 0,0 l/m 0 min 0 min 49 W/m 9,7 km/h (2 Bft) 97,87 %
14.12.2018 11:44 1,4 C 1,7 C 1,1 C 91 % 1020,8 hPa 0,0 l/m 0 min 0 min 51 W/m 6,4 km/h (2 Bft) 95,74 %
14.12.2018 11:46 1,4 C 1,7 C 1,1 C 91 % 1020,8 hPa 0,0 l/m 0 min 0 min 52 W/m 6,4 km/h (2 Bft) 97,87 %
14.12.2018 11:48 1,4 C 1,7 C 1,1 C 91 % 1020,8 hPa 0,0 l/m 0 min 0 min 53 W/m 6,4 km/h (2 Bft) 97,87 %
14.12.2018 11:50 1,4 C 1,7 C 1,1 C 91 % 1020,8 hPa 0,0 l/m 0 min 0 min 54 W/m 3,2 km/h (1 Bft) 97,83 %
14.12.2018 11:52 1,4 C 1,7 C 1,1 C 91 % 1020,8 hPa 0,0 l/m 0 min 0 min 54 W/m 3,2 km/h (1 Bft) 97,87 %
14.12.2018 11:54 1,4 C 1,7 C 1,1 C 91 % 1020,7 hPa 0,0 l/m 0 min 0 min 54 W/m 6,4 km/h (2 Bft) 95,74 %
14.12.2018 11:56 1,4 C 1,7 C 1,1 C 91 % 1020,7 hPa 0,0 l/m 0 min 0 min 58 W/m 6,4 km/h (2 Bft) 95,74 %
14.12.2018 11:58 1,5 C 1,7 C 1,1 C 91 % 1020,6 hPa 0,0 l/m 0 min 0 min 60 W/m 3,2 km/h (1 Bft) 95,74 %
14.12.2018 12:00 1,5 C 1,7 C 1,1 C 91 % 1020,6 hPa 0,0 l/m 0 min 0 min 60 W/m 6,4 km/h (2 Bft) 97,87 %
14.12.2018 12:02 1,5 C 1,7 C 1,1 C 91 % 1020,6 hPa 0,0 l/m 0 min 0 min 60 W/m 6,4 km/h (2 Bft) 93,48 %
14.12.2018 12:04 1,6 C 1,7 C 1,1 C 91 % 1020,6 hPa 0,0 l/m 0 min 0 min 62 W/m 6,4 km/h (2 Bft) 95,74 %
14.12.2018 12:08 1,6 C 1,7 C 1,1 C 91 % 1020,7 hPa 0,0 l/m 0 min 0 min 65 W/m 6,4 km/h (2 Bft) 97,87 %
14.12.2018 12:10 1,6 C 1,7 C 1,1 C 90 % 1020,7 hPa 0,0 l/m 0 min 0 min 67 W/m 9,7 km/h (2 Bft) 97,87 %
14.12.2018 12:12 1,6 C 1,7 C 1,1 C 91 % 1020,7 hPa 0,0 l/m 0 min 0 min 66 W/m 9,7 km/h (2 Bft) 95,65 %
14.12.2018 12:14 1,6 C 1,7 C 1,1 C 91 % 1020,7 hPa 0,0 l/m 0 min 0 min 63 W/m 6,4 km/h (2 Bft) 93,62 %
14.12.2018 12:16 1,7 C 1,7 C 1,1 C 91 % 1020,7 hPa 0,0 l/m 0 min 0 min 63 W/m 6,4 km/h (2 Bft) 97,87 %
14.12.2018 12:18 1,7 C 1,7 C 1,1 C 90 % 1020,6 hPa 0,0 l/m 0 min 0 min 63 W/m 9,7 km/h (2 Bft) 95,74 %
14.12.2018 12:20 1,7 C 1,7 C 1,1 C 90 % 1020,7 hPa 0,0 l/m 0 min 0 min 63 W/m 6,4 km/h (2 Bft) 95,74 %
14.12.2018 12:22 1,7 C 1,7 C 1,1 C 90 % 1020,7 hPa 0,0 l/m 0 min 0 min 63 W/m 3,2 km/h (1 Bft) 93,62 %
14.12.2018 12:24 1,7 C 2,2 C 1,7 C 90 % 1020,6 hPa 0,0 l/m 0 min 0 min 62 W/m 3,2 km/h (1 Bft) 97,83 %
14.12.2018 12:26 1,7 C 1,7 C 1,7 C 90 % 1020,6 hPa 0,0 l/m 0 min 0 min 61 W/m 6,4 km/h (2 Bft) 93,62 %
14.12.2018 12:28 1,7 C 1,7 C 1,7 C 90 % 1020,7 hPa 0,0 l/m 0 min 0 min 60 W/m 6,4 km/h (2 Bft) 97,87 %
14.12.2018 12:30 1,7 C 1,7 C 1,1 C 90 % 1020,7 hPa 0,0 l/m 0 min 0 min 59 W/m 6,4 km/h (2 Bft) 93,62 %
14.12.2018 12:32 1,7 C 1,7 C 1,1 C 90 % 1020,7 hPa 0,0 l/m 0 min 0 min 60 W/m 9,7 km/h (2 Bft) 95,74 %
14.12.2018 12:34 1,7 C 1,7 C 1,1 C 90 % 1020,7 hPa 0,0 l/m 0 min 0 min 60 W/m 6,4 km/h (2 Bft) 93,62 %
14.12.2018 12:36 1,7 C 1,7 C 1,1 C 90 % 1020,7 hPa 0,0 l/m 0 min 0 min 60 W/m 6,4 km/h (2 Bft) 93,48 %
14.12.2018 12:38 1,8 C 1,7 C 1,1 C 89 % 1020,7 hPa 0,0 l/m 0 min 0 min 59 W/m 6,4 km/h (2 Bft) 93,62 %
14.12.2018 12:40 1,7 C 1,7 C 1,7 C 89 % 1020,7 hPa 0,0 l/m 0 min 0 min 58 W/m 3,2 km/h (1 Bft) 97,87 %
14.12.2018 12:42 1,8 C 1,7 C 1,7 C 89 % 1020,7 hPa 0,0 l/m 0 min 0 min 58 W/m 6,4 km/h (2 Bft) 93,62 %
14.12.2018 12:44 1,8 C 1,7 C 1,7 C 89 % 1020,6 hPa 0,0 l/m 0 min 0 min 57 W/m 6,4 km/h (2 Bft) 95,74 %
14.12.2018 12:46 1,8 C 1,7 C 1,7 C 89 % 1020,6 hPa 0,0 l/m 0 min 0 min 56 W/m 3,2 km/h (1 Bft) 95,74 %
14.12.2018 12:48 1,8 C 1,7 C 1,7 C 89 % 1020,7 hPa 0,0 l/m 0 min 0 min 56 W/m 6,4 km/h (2 Bft) 91,30 %
14.12.2018 12:50 1,8 C 1,7 C 1,7 C 89 % 1020,6 hPa 0,0 l/m 0 min 0 min 56 W/m 6,4 km/h (2 Bft) 95,74 %
14.12.2018 12:52 1,8 C 1,7 C 1,7 C 89 % 1020,7 hPa 0,0 l/m 0 min 0 min 54 W/m 9,7 km/h (2 Bft) 95,74 %
14.12.2018 12:54 1,8 C 1,7 C 1,7 C 89 % 1020,6 hPa 0,0 l/m 0 min 0 min 53 W/m 3,2 km/h (1 Bft) 93,62 %
14.12.2018 12:56 1,8 C 1,7 C 1,7 C 89 % 1020,6 hPa 0,0 l/m 0 min 0 min 53 W/m 6,4 km/h (2 Bft) 93,62 %
14.12.2018 12:58 1,8 C 1,7 C 1,1 C 89 % 1020,5 hPa 0,0 l/m 0 min 0 min 54 W/m 6,4 km/h (2 Bft) 93,62 %
14.12.2018 13:00 1,8 C 1,7 C 1,1 C 89 % 1020,6 hPa 0,0 l/m 0 min 0 min 54 W/m 9,7 km/h (2 Bft) 93,48 %
14.12.2018 13:02 1,8 C 1,7 C 1,1 C 89 % 1020,6 hPa 0,0 l/m 0 min 0 min 53 W/m 6,4 km/h (2 Bft) 97,87 %
14.12.2018 13:04 1,8 C 1,7 C 1,7 C 89 % 1020,6 hPa 0,0 l/m 0 min 0 min 53 W/m 6,4 km/h (2 Bft) 93,62 %
14.12.2018 13:06 1,8 C 1,7 C 1,7 C 88 % 1020,6 hPa 0,0 l/m 0 min 0 min 54 W/m 6,4 km/h (2 Bft) 97,87 %
14.12.2018 13:08 1,8 C 1,7 C 1,7 C 88 % 1020,6 hPa 0,0 l/m 0 min 0 min 53 W/m 6,4 km/h (2 Bft) 87,23 %
14.12.2018 13:10 1,8 C 1,7 C 1,7 C 88 % 1020,6 hPa 0,0 l/m 0 min 0 min 53 W/m 6,4 km/h (2 Bft) 97,87 %
14.12.2018 13:12 1,8 C 1,7 C 1,7 C 88 % 1020,6 hPa 0,0 l/m 0 min 0 min 53 W/m 6,4 km/h (2 Bft) 93,48 %
14.12.2018 13:14 1,9 C 1,7 C 1,7 C 88 % 1020,6 hPa 0,0 l/m 0 min 0 min 54 W/m 6,4 km/h (2 Bft) 97,87 %
14.12.2018 13:16 1,9 C 1,7 C 1,7 C 88 % 1020,6 hPa 0,0 l/m 0 min 0 min 54 W/m 6,4 km/h (2 Bft) 100,00 %
14.12.2018 13:18 1,9 C 1,7 C 1,7 C 88 % 1020,5 hPa 0,0 l/m 0 min 0 min 54 W/m 9,7 km/h (2 Bft) 100,00 %
14.12.2018 13:20 1,9 C 1,7 C 1,7 C 88 % 1020,5 hPa 0,0 l/m 0 min 0 min 53 W/m 9,7 km/h (2 Bft) 100,00 %
14.12.2018 13:22 1,9 C 1,7 C 1,1 C 88 % 1020,5 hPa 0,0 l/m 0 min 0 min 51 W/m 6,4 km/h (2 Bft) 100,00 %
14.12.2018 13:24 1,9 C 1,7 C 1,7 C 88 % 1020,5 hPa 0,0 l/m 0 min 0 min 47 W/m 6,4 km/h (2 Bft) 95,74 %
14.12.2018 13:26 1,9 C 1,7 C 1,1 C 88 % 1020,5 hPa 0,0 l/m 0 min 0 min 46 W/m 6,4 km/h (2 Bft) 95,74 %
14.12.2018 13:28 1,9 C 1,7 C 1,1 C 87 % 1020,5 hPa 0,0 l/m 0 min 0 min 44 W/m 6,4 km/h (2 Bft) 95,74 %
14.12.2018 13:30 1,9 C 1,7 C 1,1 C 87 % 1020,5 hPa 0,0 l/m 0 min 0 min 44 W/m 6,4 km/h (2 Bft) 100,00 %
14.12.2018 13:32 1,9 C 1,7 C 1,1 C 88 % 1020,5 hPa 0,0 l/m 0 min 0 min 42 W/m 6,4 km/h (2 Bft) 97,87 %
14.12.2018 13:34 1,9 C 1,7 C 1,1 C 87 % 1020,6 hPa 0,0 l/m 0 min 0 min 42 W/m 6,4 km/h (2 Bft) 100,00 %
14.12.2018 13:36 1,9 C 1,7 C 1,1 C 87 % 1020,5 hPa 0,0 l/m 0 min 0 min 42 W/m 6,4 km/h (2 Bft) 97,87 %
14.12.2018 13:38 1,9 C 1,7 C 1,1 C 87 % 1020,6 hPa 0,0 l/m 0 min 0 min 41 W/m 6,4 km/h (2 Bft) 100,00 %
14.12.2018 13:40 1,9 C 1,7 C 1,1 C 87 % 1020,5 hPa 0,0 l/m 0 min 0 min 40 W/m 6,4 km/h (2 Bft) 95,74 %
14.12.2018 13:42 1,9 C 1,7 C 1,1 C 87 % 1020,5 hPa 0,0 l/m 0 min 0 min 39 W/m 9,7 km/h (2 Bft) 100,00 %
14.12.2018 13:44 1,9 C 1,7 C 1,1 C 87 % 1020,6 hPa 0,0 l/m 0 min 0 min 40 W/m 6,4 km/h (2 Bft) 100,00 %
14.12.2018 13:46 1,9 C 1,7 C 1,1 C 87 % 1020,5 hPa 0,0 l/m 0 min 0 min 40 W/m 6,4 km/h (2 Bft) 100,00 %
14.12.2018 13:48 1,9 C 1,7 C 1,1 C 87 % 1020,6 hPa 0,0 l/m 0 min 0 min 38 W/m 6,4 km/h (2 Bft) 95,74 %
14.12.2018 13:50 1,9 C 1,7 C 1,1 C 87 % 1020,6 hPa 0,0 l/m 0 min 0 min 36 W/m 6,4 km/h (2 Bft) 95,74 %
14.12.2018 13:52 1,9 C 1,7 C 1,1 C 87 % 1020,6 hPa 0,0 l/m 0 min 0 min 32 W/m 6,4 km/h (2 Bft) 85,11 %
14.12.2018 13:54 1,9 C 1,7 C 1,1 C 87 % 1020,7 hPa 0,0 l/m 0 min 0 min 27 W/m 6,4 km/h (2 Bft) 93,62 %
14.12.2018 13:56 1,9 C 1,7 C 1,1 C 86 % 1020,6 hPa 0,0 l/m 0 min 0 min 26 W/m 6,4 km/h (2 Bft) 93,62 %
14.12.2018 13:58 1,9 C 1,7 C 1,1 C 86 % 1020,6 hPa 0,0 l/m 0 min 0 min 22 W/m 3,2 km/h (1 Bft) 89,13 %
14.12.2018 14:00 1,9 C 1,7 C 1,1 C 86 % 1020,6 hPa 0,0 l/m 0 min 0 min 20 W/m 12,9 km/h (3 Bft) 93,62 %
14.12.2018 14:02 1,9 C 1,7 C 1,1 C 86 % 1020,6 hPa 0,0 l/m 0 min 0 min 18 W/m 6,4 km/h (2 Bft) 89,36 %
14.12.2018 14:04 1,8 C 1,7 C 1,1 C 86 % 1020,6 hPa 0,0 l/m 0 min 0 min 18 W/m 3,2 km/h (1 Bft) 87,23 %
14.12.2018 14:06 1,8 C 1,7 C 1,1 C 86 % 1020,8 hPa 0,0 l/m 0 min 0 min 16 W/m 9,7 km/h (2 Bft) 87,23 %
14.12.2018 14:08 1,8 C 1,7 C 1,1 C 86 % 1020,8 hPa 0,0 l/m 0 min 0 min 14 W/m 12,9 km/h (3 Bft) 91,49 %
14.12.2018 14:10 1,8 C 1,1 C 1,1 C 85 % 1020,8 hPa 0,0 l/m 0 min 0 min 13 W/m 12,9 km/h (3 Bft) 89,36 %
14.12.2018 14:12 1,8 C 1,1 C 1,1 C 85 % 1020,7 hPa 0,0 l/m 0 min 0 min 12 W/m 3,2 km/h (1 Bft) 89,36 %
14.12.2018 14:14 1,8 C 1,1 C 1,1 C 84 % 1020,7 hPa 0,0 l/m 0 min 0 min 11 W/m 3,2 km/h (1 Bft) 87,23 %
14.12.2018 14:16 1,8 C 1,1 C 1,1 C 84 % 1020,8 hPa 0,0 l/m 0 min 0 min 11 W/m 3,2 km/h (1 Bft) 89,36 %
14.12.2018 14:18 1,8 C 1,1 C 1,1 C 84 % 1020,8 hPa 0,0 l/m 0 min 0 min 11 W/m 3,2 km/h (1 Bft) 100,00 %
14.12.2018 14:20 1,7 C 1,1 C 1,1 C 84 % 1020,8 hPa 0,0 l/m 0 min 0 min 12 W/m 9,7 km/h (2 Bft) 95,65 %
14.12.2018 14:22 1,7 C 1,1 C 1,1 C 83 % 1020,8 hPa 0,0 l/m 0 min 0 min 14 W/m 9,7 km/h (2 Bft) 100,00 %
14.12.2018 14:24 1,7 C 1,1 C 1,1 C 83 % 1020,8 hPa 0,0 l/m 0 min 0 min 16 W/m 3,2 km/h (1 Bft) 100,00 %
14.12.2018 14:26 1,7 C 1,1 C 1,1 C 83 % 1020,8 hPa 0,0 l/m 0 min 0 min 16 W/m 3,2 km/h (1 Bft) 100,00 %
14.12.2018 14:28 1,7 C 1,1 C 1,1 C 83 % 1020,8 hPa 0,0 l/m 0 min 0 min 16 W/m 3,2 km/h (1 Bft) 87,23 %
14.12.2018 14:30 1,7 C 1,1 C 1,1 C 82 % 1020,8 hPa 0,0 l/m 0 min 0 min 16 W/m 3,2 km/h (1 Bft) 87,23 %
14.12.2018 14:32 1,7 C 1,1 C 1,1 C 82 % 1020,8 hPa 0,0 l/m 0 min 0 min 16 W/m 0,0 km/h (0 Bft) 89,13 %
14.12.2018 14:34 1,7 C 1,1 C 1,1 C 82 % 1020,8 hPa 0,0 l/m 0 min 0 min 16 W/m 0,0 km/h (0 Bft) 89,36 %
14.12.2018 14:36 1,7 C 1,1 C 1,1 C 82 % 1020,8 hPa 0,0 l/m 0 min 0 min 16 W/m 0,0 km/h (0 Bft) 95,74 %
14.12.2018 14:38 1,7 C 1,1 C 1,1 C 82 % 1020,8 hPa 0,0 l/m 0 min 0 min 17 W/m 3,2 km/h (1 Bft) 93,75 %
14.12.2018 14:40 1,7 C 1,1 C 1,1 C 82 % 1020,9 hPa 0,0 l/m 0 min 0 min 18 W/m 3,2 km/h (1 Bft) 95,74 %
14.12.2018 14:42 1,7 C 1,1 C 1,1 C 82 % 1020,8 hPa 0,0 l/m 0 min 0 min 19 W/m 3,2 km/h (1 Bft) 93,62 %
14.12.2018 14:44 1,7 C 1,1 C 1,1 C 82 % 1020,9 hPa 0,0 l/m 0 min 0 min 19 W/m 3,2 km/h (1 Bft) 93,48 %
14.12.2018 14:46 1,7 C 1,1 C 1,1 C 82 % 1020,9 hPa 0,0 l/m 0 min 0 min 21 W/m 3,2 km/h (1 Bft) 93,62 %
14.12.2018 14:48 1,6 C 1,1 C 1,1 C 82 % 1020,9 hPa 0,0 l/m 0 min 0 min 21 W/m 6,4 km/h (2 Bft) 91,49 %
14.12.2018 14:50 1,7 C 1,1 C 1,1 C 81 % 1020,9 hPa 0,0 l/m 0 min 0 min 20 W/m 3,2 km/h (1 Bft) 95,74 %
14.12.2018 14:52 1,7 C 1,7 C 1,1 C 81 % 1020,9 hPa 0,0 l/m 0 min 0 min 20 W/m 3,2 km/h (1 Bft) 95,74 %
14.12.2018 14:54 1,7 C 1,7 C 1,1 C 82 % 1020,9 hPa 0,0 l/m 0 min 0 min 20 W/m 3,2 km/h (1 Bft) 93,62 %
14.12.2018 14:56 1,7 C 1,7 C 1,1 C 82 % 1021,0 hPa 0,0 l/m 0 min 0 min 19 W/m 3,2 km/h (1 Bft) 93,48 %
14.12.2018 14:58 1,7 C 1,7 C 1,1 C 81 % 1021,0 hPa 0,0 l/m 0 min 0 min 19 W/m 0,0 km/h (0 Bft) 92,31 %
14.12.2018 15:00 1,7 C 1,7 C 1,1 C 81 % 1021,0 hPa 0,0 l/m 0 min 0 min 18 W/m 0,0 km/h (0 Bft) 91,49 %
14.12.2018 15:02 1,7 C 1,7 C 1,1 C 81 % 1021,1 hPa 0,0 l/m 0 min 0 min 19 W/m 0,0 km/h (0 Bft) 93,62 %
14.12.2018 15:04 1,7 C 1,7 C 1,1 C 81 % 1021,0 hPa 0,0 l/m 0 min 0 min 21 W/m 3,2 km/h (1 Bft) 93,62 %
14.12.2018 15:06 1,7 C 1,7 C 1,1 C 81 % 1021,1 hPa 0,0 l/m 0 min 0 min 23 W/m 3,2 km/h (1 Bft) 96,55 %
14.12.2018 15:08 1,7 C 1,7 C 1,1 C 81 % 1021,1 hPa 0,0 l/m 0 min 0 min 25 W/m 0,0 km/h (0 Bft) 91,67 %
14.12.2018 15:10 1,7 C 1,7 C 1,1 C 81 % 1021,2 hPa 0,0 l/m 0 min 0 min 26 W/m 0,0 km/h (0 Bft) 91,67 %
14.12.2018 15:12 1,7 C 1,7 C 1,1 C 81 % 1021,2 hPa 0,0 l/m 0 min 0 min 26 W/m 3,2 km/h (1 Bft) 93,48 %
14.12.2018 15:14 1,7 C 1,7 C 1,1 C 81 % 1021,2 hPa 0,0 l/m 0 min 0 min 27 W/m 0,0 km/h (0 Bft) 91,49 %
14.12.2018 15:16 1,7 C 1,7 C 1,1 C 81 % 1021,2 hPa 0,0 l/m 0 min 0 min 26 W/m 0,0 km/h (0 Bft) 93,62 %
14.12.2018 15:18 1,7 C 1,7 C 1,1 C 81 % 1021,3 hPa 0,0 l/m 0 min 0 min 24 W/m 0,0 km/h (0 Bft) 93,62 %
14.12.2018 15:20 1,7 C 1,7 C 1,1 C 81 % 1021,3 hPa 0,0 l/m 0 min 0 min 20 W/m 0,0 km/h (0 Bft) 93,62 %
14.12.2018 15:22 1,7 C 1,7 C 1,1 C 81 % 1021,3 hPa 0,0 l/m 0 min 0 min 18 W/m 0,0 km/h (0 Bft) 91,49 %
14.12.2018 15:24 1,7 C 1,1 C 1,1 C 81 % 1021,3 hPa 0,0 l/m 0 min 0 min 16 W/m 0,0 km/h (0 Bft) 93,48 %
14.12.2018 15:26 1,7 C 1,1 C 1,1 C 81 % 1021,3 hPa 0,0 l/m 0 min 0 min 16 W/m 0,0 km/h (0 Bft) 95,74 %
14.12.2018 15:28 1,7 C 1,1 C 1,1 C 81 % 1021,3 hPa 0,0 l/m 0 min 0 min 13 W/m 0,0 km/h (0 Bft) 93,62 %
14.12.2018 15:30 1,7 C 1,1 C 1,1 C 81 % 1021,3 hPa 0,0 l/m 0 min 0 min 11 W/m 0,0 km/h (0 Bft) 95,74 %
14.12.2018 15:32 1,7 C 1,1 C 1,1 C 81 % 1021,3 hPa 0,0 l/m 0 min 0 min 10 W/m 0,0 km/h (0 Bft) 91,49 %
14.12.2018 15:34 1,7 C 1,1 C 0,6 C 81 % 1021,3 hPa 0,0 l/m 0 min 0 min 8 W/m 0,0 km/h (0 Bft) 91,30 %
14.12.2018 15:36 1,7 C 1,1 C 0,6 C 81 % 1021,4 hPa 0,0 l/m 0 min 0 min 7 W/m 6,4 km/h (2 Bft) 93,62 %
14.12.2018 15:38 1,7 C 1,1 C 0,6 C 82 % 1021,4 hPa 0,0 l/m 0 min 0 min 7 W/m 6,4 km/h (2 Bft) 87,23 %
14.12.2018 15:40 1,7 C 1,1 C 0,6 C 82 % 1021,4 hPa 0,0 l/m 0 min 0 min 7 W/m 3,2 km/h (1 Bft) 93,62 %
14.12.2018 15:42 1,7 C 1,1 C 0,6 C 82 % 1021,5 hPa 0,0 l/m 0 min 0 min 7 W/m 3,2 km/h (1 Bft) 93,62 %
14.12.2018 15:44 1,7 C 1,1 C 0,6 C 82 % 1021,4 hPa 0,0 l/m 0 min 0 min 7 W/m 3,2 km/h (1 Bft) 97,87 %
14.12.2018 15:46 1,7 C 1,1 C 0,6 C 82 % 1021,5 hPa 0,0 l/m 0 min 0 min 7 W/m 3,2 km/h (1 Bft) 95,65 %
14.12.2018 15:48 1,7 C 1,1 C 0,6 C 82 % 1021,5 hPa 0,0 l/m 0 min 0 min 7 W/m 3,2 km/h (1 Bft) 97,87 %
14.12.2018 15:50 1,7 C 1,1 C 0,6 C 82 % 1021,6 hPa 0,0 l/m 0 min 0 min 7 W/m 0,0 km/h (0 Bft) 95,74 %
14.12.2018 15:52 1,7 C 1,1 C 0,6 C 82 % 1021,5 hPa 0,0 l/m 0 min 0 min 7 W/m 3,2 km/h (1 Bft) 97,87 %
14.12.2018 15:54 1,7 C 1,1 C 0,6 C 83 % 1021,5 hPa 0,0 l/m 0 min 0 min 7 W/m 3,2 km/h (1 Bft) 100,00 %
14.12.2018 15:56 1,7 C 1,1 C 0,6 C 83 % 1021,5 hPa 0,0 l/m 0 min 0 min 7 W/m 12,9 km/h (3 Bft) 97,87 %
14.12.2018 15:58 1,7 C 1,1 C 0,6 C 83 % 1021,5 hPa 0,0 l/m 0 min 0 min 5 W/m 6,4 km/h (2 Bft) 97,83 %
14.12.2018 16:00 1,7 C 1,1 C 0,6 C 83 % 1021,5 hPa 0,0 l/m 0 min 0 min 5 W/m 3,2 km/h (1 Bft) 97,87 %
14.12.2018 16:02 1,7 C 1,1 C 0,6 C 84 % 1021,5 hPa 0,0 l/m 0 min 0 min 5 W/m 0,0 km/h (0 Bft) 97,87 %
14.12.2018 16:04 1,7 C 1,1 C 0,6 C 84 % 1021,5 hPa 0,0 l/m 0 min 0 min 5 W/m 9,7 km/h (2 Bft) 97,87 %
14.12.2018 16:06 1,7 C 1,1 C 0,6 C 84 % 1021,5 hPa 0,0 l/m 0 min 0 min 5 W/m 6,4 km/h (2 Bft) 97,87 %
14.12.2018 16:08 1,7 C 1,1 C 0,6 C 84 % 1021,5 hPa 0,0 l/m 0 min 0 min 1 W/m 9,7 km/h (2 Bft) 97,87 %
14.12.2018 16:10 1,7 C 1,1 C 0,6 C 85 % 1021,5 hPa 0,0 l/m 0 min 0 min 0 W/m 6,4 km/h (2 Bft) 100,00 %
14.12.2018 16:12 1,7 C 1,1 C 0,6 C 85 % 1021,6 hPa 0,0 l/m 0 min 0 min 0 W/m 3,2 km/h (1 Bft) 100,00 %
14.12.2018 16:14 1,7 C 1,1 C 0,6 C 85 % 1021,6 hPa 0,0 l/m 0 min 0 min 0 W/m 6,4 km/h (2 Bft) 100,00 %
14.12.2018 16:16 1,7 C 1,1 C 0,6 C 85 % 1021,6 hPa 0,0 l/m 0 min 0 min 0 W/m 6,4 km/h (2 Bft) 95,74 %
14.12.2018 16:18 1,7 C 1,1 C 0,6 C 85 % 1021,6 hPa 0,0 l/m 0 min 0 min 0 W/m 6,4 km/h (2 Bft) 97,87 %
14.12.2018 16:20 1,7 C 1,1 C 0,6 C 85 % 1021,6 hPa 0,0 l/m 0 min 0 min 0 W/m 6,4 km/h (2 Bft) 100,00 %
14.12.2018 16:22 1,6 C 1,1 C 0,6 C 85 % 1021,5 hPa 0,0 l/m 0 min 0 min 0 W/m 6,4 km/h (2 Bft) 100,00 %
14.12.2018 16:24 1,6 C 1,1 C 0,6 C 85 % 1021,6 hPa 0,0 l/m 0 min 0 min 0 W/m 6,4 km/h (2 Bft) 97,87 %
14.12.2018 16:26 1,6 C 1,1 C 0,6 C 85 % 1021,6 hPa 0,0 l/m 0 min 0 min 0 W/m 6,4 km/h (2 Bft) 97,87 %
14.12.2018 16:28 1,6 C 1,1 C 0,6 C 85 % 1021,6 hPa 0,0 l/m 0 min 0 min 0 W/m 3,2 km/h (1 Bft) 95,74 %
14.12.2018 16:30 1,6 C 1,1 C 0,6 C 85 % 1021,7 hPa 0,0 l/m 0 min 0 min 0 W/m 3,2 km/h (1 Bft) 100,00 %
14.12.2018 16:32 1,6 C 1,1 C 0,6 C 85 % 1021,7 hPa 0,0 l/m 0 min 0 min 0 W/m 3,2 km/h (1 Bft) 100,00 %
14.12.2018 16:34 1,6 C 1,1 C 0,6 C 85 % 1021,7 hPa 0,0 l/m 0 min 0 min 0 W/m 6,4 km/h (2 Bft) 100,00 %
14.12.2018 16:36 1,6 C 1,1 C 0,6 C 86 % 1021,6 hPa 0,0 l/m 0 min 0 min 0 W/m 6,4 km/h (2 Bft) 100,00 %
14.12.2018 16:38 1,6 C 1,1 C 0,6 C 86 % 1021,6 hPa 0,0 l/m 0 min 0 min 0 W/m 6,4 km/h (2 Bft) 100,00 %
14.12.2018 16:40 1,6 C 1,1 C 0,6 C 86 % 1021,7 hPa 0,0 l/m 0 min 0 min 0 W/m 6,4 km/h (2 Bft) 100,00 %
14.12.2018 16:42 1,5 C 1,1 C 0,6 C 86 % 1021,7 hPa 0,0 l/m 0 min 0 min 0 W/m 3,2 km/h (1 Bft) 100,00 %
14.12.2018 16:44 1,5 C 1,1 C 0,6 C 86 % 1021,7 hPa 0,0 l/m 0 min 0 min 0 W/m 6,4 km/h (2 Bft) 100,00 %
14.12.2018 16:46 1,5 C 1,1 C 0,6 C 86 % 1021,7 hPa 0,0 l/m 0 min 0 min 0 W/m 9,7 km/h (2 Bft) 100,00 %
14.12.2018 16:48 1,5 C 1,1 C 0,6 C 86 % 1021,7 hPa 0,0 l/m 0 min 0 min 0 W/m 6,4 km/h (2 Bft) 97,87 %
14.12.2018 16:50 1,5 C 1,1 C 0,6 C 86 % 1021,8 hPa 0,0 l/m 0 min 0 min 0 W/m 6,4 km/h (2 Bft) 100,00 %
14.12.2018 16:52 1,5 C 1,1 C 0,6 C 86 % 1021,7 hPa 0,0 l/m 0 min 0 min 0 W/m 6,4 km/h (2 Bft) 100,00 %
14.12.2018 16:54 1,5 C 1,1 C 0,6 C 86 % 1021,8 hPa 0,0 l/m 0 min 0 min 0 W/m 3,2 km/h (1 Bft) 100,00 %
14.12.2018 16:56 1,4 C 1,1 C 0,6 C 86 % 1021,8 hPa 0,0 l/m 0 min 0 min 0 W/m 9,7 km/h (2 Bft) 100,00 %
14.12.2018 16:58 1,4 C 1,1 C 0,6 C 86 % 1021,8 hPa 0,0 l/m 0 min 0 min 0 W/m 6,4 km/h (2 Bft) 100,00 %
14.12.2018 17:00 1,4 C 1,1 C 0,6 C 86 % 1021,8 hPa 0,0 l/m 0 min 0 min 0 W/m 6,4 km/h (2 Bft) 100,00 %
14.12.2018 17:02 1,4 C 1,1 C 0,6 C 86 % 1021,8 hPa 0,0 l/m 0 min 0 min 0 W/m 6,4 km/h (2 Bft) 100,00 %
14.12.2018 17:04 1,4 C 1,1 C 0,6 C 86 % 1021,8 hPa 0,0 l/m 0 min 0 min 0 W/m 6,4 km/h (2 Bft) 100,00 %
14.12.2018 17:06 1,4 C 1,1 C 0,6 C 86 % 1021,7 hPa 0,0 l/m 0 min 0 min 0 W/m 6,4 km/h (2 Bft) 100,00 %
14.12.2018 17:08 1,4 C 0,6 C 0,6 C 86 % 1021,8 hPa 0,0 l/m 0 min 0 min 0 W/m 3,2 km/h (1 Bft) 100,00 %
14.12.2018 17:10 1,4 C 1,1 C 0,6 C 86 % 1021,8 hPa 0,0 l/m 0 min 0 min 0 W/m 3,2 km/h (1 Bft) 100,00 %
14.12.2018 17:12 1,4 C 0,6 C 0,6 C 86 % 1021,7 hPa 0,0 l/m 0 min 0 min 0 W/m 6,4 km/h (2 Bft) 100,00 %
14.12.2018 17:14 1,4 C 0,6 C 0,6 C 86 % 1021,8 hPa 0,0 l/m 0 min 0 min 0 W/m 3,2 km/h (1 Bft) 100,00 %
14.12.2018 17:16 1,4 C 0,6 C 0,6 C 86 % 1021,8 hPa 0,0 l/m 0 min 0 min 0 W/m 6,4 km/h (2 Bft) 100,00 %
14.12.2018 17:18 1,4 C 0,6 C 0,6 C 86 % 1021,9 hPa 0,0 l/m 0 min 0 min 0 W/m 6,4 km/h (2 Bft) 97,83 %
14.12.2018 17:20 1,4 C 0,6 C 0,6 C 86 % 1021,9 hPa 0,0 l/m 0 min 0 min 0 W/m 3,2 km/h (1 Bft) 97,87 %
14.12.2018 17:22 1,4 C 0,6 C 0,6 C 86 % 1022,0 hPa 0,0 l/m 0 min 0 min 0 W/m 3,2 km/h (1 Bft) 97,87 %
14.12.2018 17:24 1,4 C 0,6 C 0,6 C 86 % 1022,0 hPa 0,0 l/m 0 min 0 min 0 W/m 3,2 km/h (1 Bft) 100,00 %
14.12.2018 17:26 1,3 C 0,6 C 0,6 C 86 % 1022,0 hPa 0,0 l/m 0 min 0 min 0 W/m 3,2 km/h (1 Bft) 97,87 %
14.12.2018 17:28 1,3 C 0,6 C 0,6 C 86 % 1022,0 hPa 0,0 l/m 0 min 0 min 0 W/m 6,4 km/h (2 Bft) 95,74 %
14.12.2018 17:30 1,3 C 0,6 C 0,6 C 86 % 1022,0 hPa 0,0 l/m 0 min 0 min 0 W/m 6,4 km/h (2 Bft) 97,87 %
14.12.2018 17:32 1,3 C 0,6 C 0,6 C 87 % 1022,0 hPa 0,0 l/m 0 min 0 min 0 W/m 3,2 km/h (1 Bft) 97,83 %
14.12.2018 17:34 1,3 C 0,6 C 0,6 C 87 % 1022,0 hPa 0,0 l/m 0 min 0 min 0 W/m 9,7 km/h (2 Bft) 100,00 %
14.12.2018 17:36 1,3 C 0,6 C 0,6 C 87 % 1022,1 hPa 0,0 l/m 0 min 0 min 0 W/m 3,2 km/h (1 Bft) 95,74 %
14.12.2018 17:38 1,3 C 0,6 C 0,6 C 87 % 1022,1 hPa 0,0 l/m 0 min 0 min 0 W/m 3,2 km/h (1 Bft) 97,87 %
14.12.2018 17:40 1,3 C 0,6 C 0,0 C 87 % 1022,1 hPa 0,0 l/m 0 min 0 min 0 W/m 0,0 km/h (0 Bft) 97,87 %
14.12.2018 17:42 1,3 C 0,6 C 0,0 C 87 % 1022,1 hPa 0,0 l/m 0 min 0 min 0 W/m 3,2 km/h (1 Bft) 97,83 %
14.12.2018 17:44 1,3 C 0,6 C 0,0 C 87 % 1022,2 hPa 0,0 l/m 0 min 0 min 0 W/m 6,4 km/h (2 Bft) 97,87 %
14.12.2018 17:46 1,3 C 0,6 C 0,0 C 87 % 1022,1 hPa 0,0 l/m 0 min 0 min 0 W/m 3,2 km/h (1 Bft) 95,74 %
14.12.2018 17:48 1,3 C 0,6 C 0,0 C 87 % 1022,1 hPa 0,0 l/m 0 min 0 min 0 W/m 0,0 km/h (0 Bft) 93,62 %
14.12.2018 17:50 1,3 C 0,6 C 0,0 C 87 % 1022,2 hPa 0,0 l/m 0 min 0 min 0 W/m 0,0 km/h (0 Bft) 93,62 %
14.12.2018 17:52 1,3 C 0,6 C 0,0 C 87 % 1022,2 hPa 0,0 l/m 0 min 0 min 0 W/m 0,0 km/h (0 Bft) 95,74 %
14.12.2018 17:54 1,3 C 0,6 C 0,0 C 87 % 1022,2 hPa 0,0 l/m 0 min 0 min 0 W/m 3,2 km/h (1 Bft) 95,74 %
14.12.2018 17:56 1,2 C 0,6 C 0,0 C 87 % 1022,2 hPa 0,0 l/m 0 min 0 min 0 W/m 0,0 km/h (0 Bft) 95,65 %
14.12.2018 17:58 1,3 C 0,6 C 0,0 C 87 % 1022,2 hPa 0,0 l/m 0 min 0 min 0 W/m 0,0 km/h (0 Bft) 93,62 %
14.12.2018 18:00 1,2 C 0,6 C 0,0 C 87 % 1022,2 hPa 0,0 l/m 0 min 0 min 0 W/m 3,2 km/h (1 Bft) 93,62 %
14.12.2018 18:02 1,2 C 0,6 C 0,0 C 87 % 1022,2 hPa 0,0 l/m 0 min 0 min 0 W/m 3,2 km/h (1 Bft) 93,62 %
14.12.2018 18:04 1,2 C 0,6 C 0,0 C 87 % 1022,2 hPa 0,0 l/m 0 min 0 min 0 W/m 0,0 km/h (0 Bft) 93,62 %
14.12.2018 18:08 1,2 C 0,6 C 0,0 C 87 % 1022,3 hPa 0,0 l/m 0 min 0 min 0 W/m 3,2 km/h (1 Bft) 91,40 %
14.12.2018 18:10 1,2 C 0,6 C 0,0 C 87 % 1022,2 hPa 0,0 l/m 0 min 0 min 0 W/m 0,0 km/h (0 Bft) 93,62 %
14.12.2018 18:12 1,2 C 0,6 C 0,0 C 87 % 1022,2 hPa 0,0 l/m 0 min 0 min 0 W/m 3,2 km/h (1 Bft) 91,49 %
14.12.2018 18:14 1,2 C 0,6 C 0,0 C 87 % 1022,2 hPa 0,0 l/m 0 min 0 min 0 W/m 0,0 km/h (0 Bft) 93,62 %
14.12.2018 18:16 1,2 C 0,6 C 0,0 C 87 % 1022,3 hPa 0,0 l/m 0 min 0 min 0 W/m 0,0 km/h (0 Bft) 93,62 %
14.12.2018 18:18 1,2 C 0,6 C 0,0 C 87 % 1022,3 hPa 0,0 l/m 0 min 0 min 0 W/m 3,2 km/h (1 Bft) 93,48 %
14.12.2018 18:20 1,2 C 0,6 C 0,0 C 87 % 1022,4 hPa 0,0 l/m 0 min 0 min 0 W/m 0,0 km/h (0 Bft) 93,62 %
14.12.2018 18:22 1,2 C 0,6 C 0,0 C 87 % 1022,4 hPa 0,0 l/m 0 min 0 min 0 W/m 0,0 km/h (0 Bft) 95,74 %
14.12.2018 18:24 1,2 C 0,6 C 0,0 C 87 % 1022,4 hPa 0,0 l/m 0 min 0 min 0 W/m 0,0 km/h (0 Bft) 93,62 %
14.12.2018 18:26 1,2 C 0,6 C 0,0 C 88 % 1022,4 hPa 0,0 l/m 0 min 0 min 0 W/m 0,0 km/h (0 Bft) 95,74 %
14.12.2018 18:28 1,2 C 0,6 C 0,0 C 88 % 1022,4 hPa 0,0 l/m 0 min 0 min 0 W/m 0,0 km/h (0 Bft) 93,48 %
14.12.2018 18:30 1,1 C 0,6 C 0,0 C 88 % 1022,5 hPa 0,0 l/m 0 min 0 min 0 W/m 3,2 km/h (1 Bft) 95,74 %
14.12.2018 18:32 1,1 C 0,6 C 0,0 C 88 % 1022,5 hPa 0,0 l/m 0 min 0 min 0 W/m 0,0 km/h (0 Bft) 97,87 %
14.12.2018 18:34 1,1 C 0,6 C 0,0 C 88 % 1022,6 hPa 0,0 l/m 0 min 0 min 0 W/m 0,0 km/h (0 Bft) 97,87 %
14.12.2018 18:36 1,1 C 0,6 C 0,0 C 88 % 1022,6 hPa 0,0 l/m 0 min 0 min 0 W/m 0,0 km/h (0 Bft) 97,87 %
14.12.2018 18:38 1,1 C 0,6 C 0,0 C 88 % 1022,6 hPa 0,0 l/m 0 min 0 min 0 W/m 0,0 km/h (0 Bft) 95,74 %
14.12.2018 18:40 1,1 C 0,6 C 0,0 C 88 % 1022,6 hPa 0,0 l/m 0 min 0 min 0 W/m 3,2 km/h (1 Bft) 97,87 %
14.12.2018 18:42 1,1 C 0,6 C 0,0 C 88 % 1022,6 hPa 0,0 l/m 0 min 0 min 0 W/m 0,0 km/h (0 Bft) 95,65 %
14.12.2018 18:44 1,1 C 0,6 C 0,0 C 88 % 1022,7 hPa 0,0 l/m 0 min 0 min 0 W/m 0,0 km/h (0 Bft) 97,87 %
14.12.2018 18:46 1,1 C 0,6 C 0,0 C 88 % 1022,7 hPa 0,0 l/m 0 min 0 min 0 W/m 3,2 km/h (1 Bft) 95,74 %
14.12.2018 18:48 1,1 C 1,1 C 0,0 C 88 % 1022,7 hPa 0,0 l/m 0 min 0 min 0 W/m 3,2 km/h (1 Bft) 97,87 %
14.12.2018 18:50 1,1 C 0,6 C 0,0 C 88 % 1022,7 hPa 0,0 l/m 0 min 0 min 0 W/m 3,2 km/h (1 Bft) 97,87 %
14.12.2018 18:52 1,1 C 0,6 C 0,0 C 88 % 1022,7 hPa 0,0 l/m 0 min 0 min 0 W/m 0,0 km/h (0 Bft) 97,83 %
14.12.2018 18:54 1,1 C 0,6 C 0,0 C 88 % 1022,8 hPa 0,0 l/m 0 min 0 min 0 W/m 0,0 km/h (0 Bft) 97,87 %
14.12.2018 18:56 1,1 C 0,6 C 0,0 C 88 % 1022,7 hPa 0,0 l/m 0 min 0 min 0 W/m 0,0 km/h (0 Bft) 97,87 %
14.12.2018 18:58 1,1 C 0,6 C 0,0 C 88 % 1022,8 hPa 0,0 l/m 0 min 0 min 0 W/m 0,0 km/h (0 Bft) 97,87 %
14.12.2018 19:00 1,1 C 0,6 C 0,0 C 88 % 1022,8 hPa 0,0 l/m 0 min 0 min 0 W/m 3,2 km/h (1 Bft) 100,00 %
14.12.2018 19:02 1,1 C 0,6 C 0,0 C 88 % 1022,8 hPa 0,0 l/m 0 min 0 min 0 W/m 0,0 km/h (0 Bft) 100,00 %
14.12.2018 19:04 1,1 C 0,6 C 0,0 C 88 % 1022,9 hPa 0,0 l/m 0 min 0 min 0 W/m 0,0 km/h (0 Bft) 100,00 %
14.12.2018 19:06 1,1 C 0,6 C 0,0 C 88 % 1022,8 hPa 0,0 l/m 0 min 0 min 0 W/m 0,0 km/h (0 Bft) 97,87 %
14.12.2018 19:08 1,1 C 0,6 C 0,0 C 88 % 1022,8 hPa 0,0 l/m 0 min 0 min 0 W/m 0,0 km/h (0 Bft) 100,00 %
14.12.2018 19:10 1,1 C 0,6 C 0,0 C 88 % 1022,8 hPa 0,0 l/m 0 min 0 min 0 W/m 0,0 km/h (0 Bft) 100,00 %
14.12.2018 19:12 1,1 C 0,6 C 0,0 C 88 % 1022,8 hPa 0,0 l/m 0 min 0 min 0 W/m 0,0 km/h (0 Bft) 100,00 %
14.12.2018 19:14 1,1 C 0,6 C 0,0 C 88 % 1022,8 hPa 0,0 l/m 0 min 0 min 0 W/m 0,0 km/h (0 Bft) 100,00 %
14.12.2018 19:16 1,1 C 0,6 C 0,0 C 88 % 1022,8 hPa 0,0 l/m 0 min 0 min 0 W/m 0,0 km/h (0 Bft) 97,83 %
14.12.2018 19:18 1,1 C 0,6 C 0,0 C 88 % 1022,8 hPa 0,0 l/m 0 min 0 min 0 W/m 0,0 km/h (0 Bft) 100,00 %
14.12.2018 19:20 1,1 C 0,6 C 0,0 C 88 % 1022,8 hPa 0,0 l/m 0 min 0 min 0 W/m 0,0 km/h (0 Bft) 100,00 %
14.12.2018 19:22 1,1 C 0,6 C 0,0 C 88 % 1022,8 hPa 0,0 l/m 0 min 0 min 0 W/m 0,0 km/h (0 Bft) 100,00 %
14.12.2018 19:24 1,1 C 0,6 C 0,0 C 88 % 1022,8 hPa 0,0 l/m 0 min 0 min 0 W/m 0,0 km/h (0 Bft) 100,00 %
14.12.2018 19:26 1,1 C 0,6 C 0,0 C 88 % 1022,8 hPa 0,0 l/m 0 min 0 min 0 W/m 0,0 km/h (0 Bft) 100,00 %
14.12.2018 19:28 1,1 C 0,6 C 0,0 C 88 % 1022,8 hPa 0,0 l/m 0 min 0 min 0 W/m 0,0 km/h (0 Bft) 100,00 %
14.12.2018 19:30 1,1 C 0,6 C 0,0 C 88 % 1022,9 hPa 0,0 l/m 0 min 0 min 0 W/m 0,0 km/h (0 Bft) 100,00 %
14.12.2018 19:32 1,1 C 0,6 C 0,0 C 88 % 1022,9 hPa 0,0 l/m 0 min 0 min 0 W/m 0,0 km/h (0 Bft) 100,00 %
14.12.2018 19:34 1,1 C 0,6 C 0,0 C 87 % 1022,9 hPa 0,0 l/m 0 min 0 min 0 W/m 0,0 km/h (0 Bft) 100,00 %
14.12.2018 19:36 1,1 C 0,6 C 0,0 C 87 % 1022,9 hPa 0,0 l/m 0 min 0 min 0 W/m 0,0 km/h (0 Bft) 100,00 %
14.12.2018 19:38 1,1 C 0,6 C 0,0 C 87 % 1022,9 hPa 0,0 l/m 0 min 0 min 0 W/m 0,0 km/h (0 Bft) 97,83 %
14.12.2018 19:40 1,1 C 0,6 C 0,0 C 87 % 1022,9 hPa 0,0 l/m 0 min 0 min 0 W/m 0,0 km/h (0 Bft) 100,00 %
14.12.2018 19:42 1,1 C 0,6 C 0,0 C 88 % 1022,9 hPa 0,0 l/m 0 min 0 min 0 W/m 0,0 km/h (0 Bft) 97,87 %
14.12.2018 19:44 1,1 C 0,6 C 0,0 C 88 % 1023,0 hPa 0,0 l/m 0 min 0 min 0 W/m 0,0 km/h (0 Bft) 100,00 %
14.12.2018 19:46 1,1 C 0,6 C 0,0 C 88 % 1022,9 hPa 0,0 l/m 0 min 0 min 0 W/m 0,0 km/h (0 Bft) 97,87 %
14.12.2018 19:48 1,0 C 0,6 C 0,0 C 88 % 1022,9 hPa 0,0 l/m 0 min 0 min 0 W/m 0,0 km/h (0 Bft) 100,00 %
14.12.2018 19:50 1,0 C 0,6 C 0,0 C 88 % 1022,9 hPa 0,0 l/m 0 min 0 min 0 W/m 0,0 km/h (0 Bft) 100,00 %
14.12.2018 19:52 1,0 C 0,6 C 0,0 C 88 % 1023,0 hPa 0,0 l/m 0 min 0 min 0 W/m 0,0 km/h (0 Bft) 100,00 %
14.12.2018 19:54 1,0 C 0,6 C 0,0 C 88 % 1022,9 hPa 0,0 l/m 0 min 0 min 0 W/m 0,0 km/h (0 Bft) 97,87 %
14.12.2018 19:56 1,0 C 0,6 C 0,0 C 88 % 1023,0 hPa 0,0 l/m 0 min 0 min 0 W/m 0,0 km/h (0 Bft) 95,74 %
14.12.2018 19:58 1,0 C 0,6 C 0,0 C 88 % 1023,1 hPa 0,0 l/m 0 min 0 min 0 W/m 0,0 km/h (0 Bft) 100,00 %
14.12.2018 20:00 1,0 C 0,6 C 0,0 C 88 % 1023,1 hPa 0,0 l/m 0 min 0 min 0 W/m 0,0 km/h (0 Bft) 100,00 %
14.12.2018 20:02 1,0 C 0,6 C 0,0 C 88 % 1023,1 hPa 0,0 l/m 0 min 0 min 0 W/m 0,0 km/h (0 Bft) 97,83 %
14.12.2018 20:04 1,0 C 0,6 C 0,0 C 88 % 1023,2 hPa 0,0 l/m 0 min 0 min 0 W/m 0,0 km/h (0 Bft) 95,74 %
14.12.2018 20:06 1,0 C 0,6 C 0,0 C 88 % 1023,2 hPa 0,0 l/m 0 min 0 min 0 W/m 0,0 km/h (0 Bft) 97,87 %
14.12.2018 20:08 0,9 C 0,6 C 0,0 C 88 % 1023,2 hPa 0,0 l/m 0 min 0 min 0 W/m 0,0 km/h (0 Bft) 100,00 %
14.12.2018 20:10 0,9 C 0,6 C 0,0 C 88 % 1023,2 hPa 0,0 l/m 0 min 0 min 0 W/m 0,0 km/h (0 Bft) 97,87 %
14.12.2018 20:12 0,9 C 0,6 C 0,0 C 88 % 1023,2 hPa 0,0 l/m 0 min 0 min 0 W/m 0,0 km/h (0 Bft) 97,87 %
14.12.2018 20:14 0,9 C 0,6 C 0,0 C 88 % 1023,2 hPa 0,0 l/m 0 min 0 min 0 W/m 0,0 km/h (0 Bft) 97,83 %
14.12.2018 20:16 0,9 C 0,6 C 0,0 C 88 % 1023,3 hPa 0,0 l/m 0 min 0 min 0 W/m 0,0 km/h (0 Bft) 97,87 %
14.12.2018 20:18 0,9 C 0,6 C 0,0 C 88 % 1023,2 hPa 0,0 l/m 0 min 0 min 0 W/m 0,0 km/h (0 Bft) 95,74 %
14.12.2018 20:20 0,9 C 0,6 C 0,0 C 88 % 1023,3 hPa 0,0 l/m 0 min 0 min 0 W/m 0,0 km/h (0 Bft) 97,87 %
14.12.2018 20:22 0,9 C 0,6 C 0,0 C 88 % 1023,3 hPa 0,0 l/m 0 min 0 min 0 W/m 0,0 km/h (0 Bft) 93,62 %
14.12.2018 20:24 0,9 C 0,6 C 0,0 C 88 % 1023,3 hPa 0,0 l/m 0 min 0 min 0 W/m 0,0 km/h (0 Bft) 97,87 %
14.12.2018 20:26 0,9 C 0,6 C 0,0 C 88 % 1023,3 hPa 0,0 l/m 0 min 0 min 0 W/m 0,0 km/h (0 Bft) 93,48 %
14.12.2018 20:28 0,9 C 0,6 C 0,0 C 88 % 1023,4 hPa 0,0 l/m 0 min 0 min 0 W/m 0,0 km/h (0 Bft) 95,74 %
14.12.2018 20:30 0,9 C 0,0 C 0,0 C 88 % 1023,4 hPa 0,0 l/m 0 min 0 min 0 W/m 0,0 km/h (0 Bft) 97,87 %
14.12.2018 20:32 0,9 C 0,0 C 0,0 C 88 % 1023,4 hPa 0,0 l/m 0 min 0 min 0 W/m 0,0 km/h (0 Bft) 95,74 %
14.12.2018 20:34 0,9 C 0,0 C 0,0 C 88 % 1023,4 hPa 0,0 l/m 0 min 0 min 0 W/m 0,0 km/h (0 Bft) 95,74 %
14.12.2018 20:36 0,9 C 0,0 C 0,0 C 88 % 1023,4 hPa 0,0 l/m 0 min 0 min 0 W/m 0,0 km/h (0 Bft) 95,65 %
14.12.2018 20:38 0,9 C 0,0 C 0,0 C 88 % 1023,4 hPa 0,0 l/m 0 min 0 min 0 W/m 0,0 km/h (0 Bft) 95,74 %
14.12.2018 20:40 0,9 C 0,0 C 0,0 C 88 % 1023,4 hPa 0,0 l/m 0 min 0 min 0 W/m 0,0 km/h (0 Bft) 95,74 %
14.12.2018 20:42 0,9 C 0,0 C 0,0 C 88 % 1023,4 hPa 0,0 l/m 0 min 0 min 0 W/m 0,0 km/h (0 Bft) 95,74 %
14.12.2018 20:44 0,8 C 0,0 C 0,0 C 88 % 1023,3 hPa 0,0 l/m 0 min 0 min 0 W/m 0,0 km/h (0 Bft) 93,62 %
14.12.2018 20:46 0,8 C 0,0 C 0,0 C 88 % 1023,3 hPa 0,0 l/m 0 min 0 min 0 W/m 0,0 km/h (0 Bft) 95,74 %
14.12.2018 20:48 0,8 C 0,0 C 0,0 C 88 % 1023,3 hPa 0,0 l/m 0 min 0 min 0 W/m 0,0 km/h (0 Bft) 95,74 %
14.12.2018 20:50 0,8 C 0,0 C 0,0 C 88 % 1023,3 hPa 0,0 l/m 0 min 0 min 0 W/m 0,0 km/h (0 Bft) 97,83 %
14.12.2018 20:52 0,8 C 0,0 C 0,0 C 88 % 1023,3 hPa 0,0 l/m 0 min 0 min 0 W/m 3,2 km/h (1 Bft) 95,74 %
14.12.2018 20:54 0,8 C 0,0 C 0,0 C 88 % 1023,3 hPa 0,0 l/m 0 min 0 min 0 W/m 0,0 km/h (0 Bft) 97,87 %
14.12.2018 20:56 0,8 C 0,0 C 0,0 C 88 % 1023,3 hPa 0,0 l/m 0 min 0 min 0 W/m 0,0 km/h (0 Bft) 97,87 %
14.12.2018 20:58 0,8 C 0,0 C 0,0 C 88 % 1023,4 hPa 0,0 l/m 0 min 0 min 0 W/m 0,0 km/h (0 Bft) 97,87 %
14.12.2018 21:00 0,8 C 0,0 C 0,0 C 88 % 1023,4 hPa 0,0 l/m 0 min 0 min 0 W/m 0,0 km/h (0 Bft) 95,65 %
14.12.2018 21:02 0,8 C 0,0 C 0,0 C 88 % 1023,3 hPa 0,0 l/m 0 min 0 min 0 W/m 0,0 km/h (0 Bft) 97,87 %
14.12.2018 21:04 0,8 C 0,0 C 0,0 C 88 % 1023,3 hPa 0,0 l/m 0 min 0 min 0 W/m 0,0 km/h (0 Bft) 95,74 %
14.12.2018 21:06 0,8 C 0,0 C 0,0 C 88 % 1023,3 hPa 0,0 l/m 0 min 0 min 0 W/m 3,2 km/h (1 Bft) 97,87 %
14.12.2018 21:08 0,8 C 0,0 C 0,0 C 89 % 1023,3 hPa 0,0 l/m 0 min 0 min 0 W/m 0,0 km/h (0 Bft) 95,74 %
14.12.2018 21:10 0,8 C 0,0 C 0,0 C 89 % 1023,3 hPa 0,0 l/m 0 min 0 min 0 W/m 0,0 km/h (0 Bft) 97,87 %
14.12.2018 21:12 0,8 C 0,0 C 0,0 C 89 % 1023,3 hPa 0,0 l/m 0 min 0 min 0 W/m 0,0 km/h (0 Bft) 95,65 %
14.12.2018 21:14 0,8 C 0,0 C 0,0 C 89 % 1023,2 hPa 0,0 l/m 0 min 0 min 0 W/m 0,0 km/h (0 Bft) 100,00 %
14.12.2018 21:16 0,8 C 0,0 C 0,0 C 89 % 1023,2 hPa 0,0 l/m 0 min 0 min 0 W/m 0,0 km/h (0 Bft) 100,00 %
14.12.2018 21:18 0,8 C 0,0 C 0,0 C 89 % 1023,2 hPa 0,0 l/m 0 min 0 min 0 W/m 3,2 km/h (1 Bft) 97,87 %
14.12.2018 21:20 0,8 C 0,0 C 0,0 C 89 % 1023,2 hPa 0,0 l/m 0 min 0 min 0 W/m 0,0 km/h (0 Bft) 97,87 %
14.12.2018 21:22 0,8 C 0,0 C 0,0 C 89 % 1023,2 hPa 0,0 l/m 0 min 0 min 0 W/m 0,0 km/h (0 Bft) 100,00 %
14.12.2018 21:24 0,8 C 0,0 C 0,0 C 89 % 1023,2 hPa 0,0 l/m 0 min 0 min 0 W/m 0,0 km/h (0 Bft) 95,65 %
14.12.2018 21:26 0,7 C 0,0 C 0,0 C 89 % 1023,2 hPa 0,0 l/m 0 min 0 min 0 W/m 0,0 km/h (0 Bft) 100,00 %
14.12.2018 21:28 0,7 C 0,0 C 0,0 C 89 % 1023,2 hPa 0,0 l/m 0 min 0 min 0 W/m 0,0 km/h (0 Bft) 97,87 %
14.12.2018 21:30 0,7 C 0,0 C 0,0 C 89 % 1023,2 hPa 0,0 l/m 0 min 0 min 0 W/m 0,0 km/h (0 Bft) 97,87 %
14.12.2018 21:32 0,7 C 0,0 C 0,0 C 89 % 1023,2 hPa 0,0 l/m 0 min 0 min 0 W/m 0,0 km/h (0 Bft) 100,00 %
14.12.2018 21:34 0,7 C 0,0 C 0,0 C 89 % 1023,2 hPa 0,0 l/m 0 min 0 min 0 W/m 0,0 km/h (0 Bft) 97,87 %
14.12.2018 21:36 0,7 C 0,0 C 0,0 C 89 % 1023,1 hPa 0,0 l/m 0 min 0 min 0 W/m 0,0 km/h (0 Bft) 97,83 %
14.12.2018 21:38 0,7 C 0,0 C 0,0 C 89 % 1023,1 hPa 0,0 l/m 0 min 0 min 0 W/m 0,0 km/h (0 Bft) 97,87 %
14.12.2018 21:40 0,7 C 0,0 C 0,0 C 89 % 1023,2 hPa 0,0 l/m 0 min 0 min 0 W/m 3,2 km/h (1 Bft) 97,87 %
14.12.2018 21:42 0,7 C 0,6 C 0,0 C 89 % 1023,2 hPa 0,0 l/m 0 min 0 min 0 W/m 3,2 km/h (1 Bft) 97,87 %
14.12.2018 21:44 0,7 C 0,6 C 0,0 C 89 % 1023,2 hPa 0,0 l/m 0 min 0 min 0 W/m 3,2 km/h (1 Bft) 97,87 %
14.12.2018 21:46 0,7 C 0,6 C 0,0 C 89 % 1023,2 hPa 0,0 l/m 0 min 0 min 0 W/m 3,2 km/h (1 Bft) 97,83 %
14.12.2018 21:48 0,7 C 0,6 C 0,0 C 89 % 1023,2 hPa 0,0 l/m 0 min 0 min 0 W/m 3,2 km/h (1 Bft) 98,04 %
14.12.2018 21:50 0,7 C 0,6 C 0,0 C 89 % 1023,2 hPa 0,0 l/m 0 min 0 min 0 W/m 0,0 km/h (0 Bft) 97,87 %
14.12.2018 21:52 0,7 C 0,6 C 0,0 C 89 % 1023,2 hPa 0,0 l/m 0 min 0 min 0 W/m 3,2 km/h (1 Bft) 93,62 %
14.12.2018 21:54 0,7 C 0,6 C 0,0 C 88 % 1023,2 hPa 0,0 l/m 0 min 0 min 0 W/m 3,2 km/h (1 Bft) 93,62 %
14.12.2018 21:56 0,7 C 0,6 C 0,0 C 88 % 1023,2 hPa 0,0 l/m 0 min 0 min 0 W/m 0,0 km/h (0 Bft) 97,87 %
14.12.2018 21:58 0,7 C 0,6 C 0,0 C 88 % 1023,2 hPa 0,0 l/m 0 min 0 min 0 W/m 3,2 km/h (1 Bft) 97,83 %
14.12.2018 22:00 0,7 C 0,6 C 0,0 C 87 % 1023,2 hPa 0,0 l/m 0 min 0 min 0 W/m 6,4 km/h (2 Bft) 97,87 %
14.12.2018 22:02 0,8 C 0,6 C 0,0 C 87 % 1023,2 hPa 0,0 l/m 0 min 0 min 0 W/m 3,2 km/h (1 Bft) 97,87 %
14.12.2018 22:04 0,8 C 0,6 C 0,0 C 86 % 1023,3 hPa 0,0 l/m 0 min 0 min 0 W/m 3,2 km/h (1 Bft) 97,87 %
14.12.2018 22:06 0,8 C 0,6 C 0,0 C 85 % 1023,2 hPa 0,0 l/m 0 min 0 min 0 W/m 3,2 km/h (1 Bft) 95,74 %
14.12.2018 22:08 0,8 C 0,6 C 0,0 C 85 % 1023,2 hPa 0,0 l/m 0 min 0 min 0 W/m 0,0 km/h (0 Bft) 97,83 %
14.12.2018 22:10 0,8 C 0,6 C 0,0 C 84 % 1023,2 hPa 0,0 l/m 0 min 0 min 0 W/m 3,2 km/h (1 Bft) 97,87 %
14.12.2018 22:12 0,8 C 0,6 C 0,0 C 84 % 1023,2 hPa 0,0 l/m 0 min 0 min 0 W/m 0,0 km/h (0 Bft) 97,56 %
14.12.2018 22:14 0,8 C 0,6 C 0,0 C 84 % 1023,2 hPa 0,0 l/m 0 min 0 min 0 W/m 6,4 km/h (2 Bft) 97,56 %
14.12.2018 22:16 0,8 C 0,6 C 0,0 C 83 % 1023,2 hPa 0,0 l/m 0 min 0 min 0 W/m 6,4 km/h (2 Bft) 97,87 %
14.12.2018 22:18 0,8 C 0,6 C 0,0 C 83 % 1023,2 hPa 0,0 l/m 0 min 0 min 0 W/m 6,4 km/h (2 Bft) 95,74 %
14.12.2018 22:20 0,8 C 0,6 C 0,0 C 82 % 1023,2 hPa 0,0 l/m 0 min 0 min 0 W/m 3,2 km/h (1 Bft) 97,87 %
14.12.2018 22:22 0,8 C 1,1 C 0,0 C 82 % 1023,2 hPa 0,0 l/m 0 min 0 min 0 W/m 9,7 km/h (2 Bft) 95,74 %
14.12.2018 22:24 0,9 C 0,6 C 0,0 C 81 % 1023,2 hPa 0,0 l/m 0 min 0 min 0 W/m 3,2 km/h (1 Bft) 95,65 %
14.12.2018 22:26 0,9 C 0,6 C 0,0 C 81 % 1023,2 hPa 0,0 l/m 0 min 0 min 0 W/m 3,2 km/h (1 Bft) 93,62 %
14.12.2018 22:28 0,9 C 0,6 C 0,0 C 81 % 1023,2 hPa 0,0 l/m 0 min 0 min 0 W/m 6,4 km/h (2 Bft) 100,00 %
14.12.2018 22:30 0,9 C 0,6 C 0,0 C 81 % 1023,1 hPa 0,0 l/m 0 min 0 min 0 W/m 3,2 km/h (1 Bft) 95,74 %
14.12.2018 22:32 0,9 C 0,6 C 0,0 C 80 % 1023,2 hPa 0,0 l/m 0 min 0 min 0 W/m 9,7 km/h (2 Bft) 95,74 %
14.12.2018 22:34 0,9 C 0,6 C 0,0 C 80 % 1023,1 hPa 0,0 l/m 0 min 0 min 0 W/m 9,7 km/h (2 Bft) 97,87 %
14.12.2018 22:36 0,9 C 0,6 C 0,0 C 80 % 1023,1 hPa 0,0 l/m 0 min 0 min 0 W/m 6,4 km/h (2 Bft) 98,28 %
14.12.2018 22:38 0,9 C 0,6 C 0,0 C 80 % 1023,1 hPa 0,0 l/m 0 min 0 min 0 W/m 3,2 km/h (1 Bft) 100,00 %
14.12.2018 22:40 0,9 C 0,6 C 0,0 C 80 % 1023,1 hPa 0,0 l/m 0 min 0 min 0 W/m 6,4 km/h (2 Bft) 97,50 %
14.12.2018 22:42 0,9 C 0,6 C 0,0 C 79 % 1023,1 hPa 0,0 l/m 0 min 0 min 0 W/m 6,4 km/h (2 Bft) 93,62 %
14.12.2018 22:44 0,9 C 0,6 C 0,0 C 79 % 1023,1 hPa 0,0 l/m 0 min 0 min 0 W/m 3,2 km/h (1 Bft) 95,74 %
14.12.2018 22:46 1,0 C 0,6 C 0,0 C 79 % 1023,1 hPa 0,0 l/m 0 min 0 min 0 W/m 3,2 km/h (1 Bft) 97,87 %
14.12.2018 22:48 1,0 C 0,6 C 0,0 C 79 % 1023,1 hPa 0,0 l/m 0 min 0 min 0 W/m 6,4 km/h (2 Bft) 95,65 %
14.12.2018 22:50 1,0 C 0,6 C 0,0 C 79 % 1023,1 hPa 0,0 l/m 0 min 0 min 0 W/m 9,7 km/h (2 Bft) 95,74 %
14.12.2018 22:52 1,0 C 0,6 C 0,0 C 78 % 1023,0 hPa 0,0 l/m 0 min 0 min 0 W/m 6,4 km/h (2 Bft) 97,87 %
14.12.2018 22:54 1,0 C 0,6 C 0,0 C 79 % 1023,0 hPa 0,0 l/m 0 min 0 min 0 W/m 9,7 km/h (2 Bft) 100,00 %
14.12.2018 22:56 1,0 C 0,6 C 0,0 C 78 % 1023,1 hPa 0,0 l/m 0 min 0 min 0 W/m 19,3 km/h (3 Bft) 97,87 %
14.12.2018 22:58 0,9 C 0,6 C 0,0 C 78 % 1023,0 hPa 0,0 l/m 0 min 0 min 0 W/m 9,7 km/h (2 Bft) 97,83 %
14.12.2018 23:00 1,0 C 0,6 C 0,0 C 77 % 1023,1 hPa 0,0 l/m 0 min 0 min 0 W/m 9,7 km/h (2 Bft) 95,74 %
14.12.2018 23:02 0,9 C 0,6 C 0,0 C 77 % 1023,0 hPa 0,0 l/m 0 min 0 min 0 W/m 9,7 km/h (2 Bft) 95,74 %
14.12.2018 23:04 0,9 C 0,6 C 0,0 C 76 % 1023,0 hPa 0,0 l/m 0 min 0 min 0 W/m 12,9 km/h (3 Bft) 93,62 %
14.12.2018 23:06 0,9 C 0,6 C 0,0 C 76 % 1023,0 hPa 0,0 l/m 0 min 0 min 0 W/m 12,9 km/h (3 Bft) 93,10 %
14.12.2018 23:08 0,9 C 0,6 C 0,0 C 75 % 1023,0 hPa 0,0 l/m 0 min 0 min 0 W/m 12,9 km/h (3 Bft) 97,14 %
14.12.2018 23:10 0,9 C 0,6 C 0,0 C 75 % 1022,9 hPa 0,0 l/m 0 min 0 min 0 W/m 19,3 km/h (3 Bft) 95,65 %
14.12.2018 23:12 0,9 C 0,6 C 0,0 C 75 % 1022,9 hPa 0,0 l/m 0 min 0 min 0 W/m 6,4 km/h (2 Bft) 95,74 %
14.12.2018 23:14 0,9 C 0,6 C 0,0 C 75 % 1022,9 hPa 0,0 l/m 0 min 0 min 0 W/m 9,7 km/h (2 Bft) 93,62 %
14.12.2018 23:16 0,9 C 0,6 C 0,0 C 75 % 1023,0 hPa 0,0 l/m 0 min 0 min 0 W/m 6,4 km/h (2 Bft) 95,74 %
14.12.2018 23:18 0,9 C 0,6 C 0,0 C 75 % 1023,0 hPa 0,0 l/m 0 min 0 min 0 W/m 0,0 km/h (0 Bft) 95,74 %
14.12.2018 23:20 0,9 C 0,6 C 0,0 C 75 % 1023,0 hPa 0,0 l/m 0 min 0 min 0 W/m 3,2 km/h (1 Bft) 95,74 %
14.12.2018 23:22 0,9 C 0,6 C 0,0 C 75 % 1022,9 hPa 0,0 l/m 0 min 0 min 0 W/m 3,2 km/h (1 Bft) 93,48 %
14.12.2018 23:24 0,9 C 0,6 C 0,0 C 75 % 1023,0 hPa 0,0 l/m 0 min 0 min 0 W/m 3,2 km/h (1 Bft) 95,74 %
14.12.2018 23:26 0,9 C 0,6 C 0,0 C 76 % 1023,0 hPa 0,0 l/m 0 min 0 min 0 W/m 3,2 km/h (1 Bft) 97,87 %
14.12.2018 23:28 0,9 C 0,6 C 0,0 C 76 % 1023,0 hPa 0,0 l/m 0 min 0 min 0 W/m 6,4 km/h (2 Bft) 97,87 %
14.12.2018 23:30 0,9 C 0,6 C -0,6 C 76 % 1023,0 hPa 0,0 l/m 0 min 0 min 0 W/m 3,2 km/h (1 Bft) 97,87 %
14.12.2018 23:32 0,9 C 0,6 C -0,6 C 76 % 1023,0 hPa 0,0 l/m 0 min 0 min 0 W/m 6,4 km/h (2 Bft) 97,87 %
14.12.2018 23:34 0,9 C 0,6 C -0,6 C 76 % 1022,9 hPa 0,0 l/m 0 min 0 min 0 W/m 3,2 km/h (1 Bft) 100,00 %
14.12.2018 23:36 0,9 C 0,6 C -0,6 C 76 % 1023,0 hPa 0,0 l/m 0 min 0 min 0 W/m 3,2 km/h (1 Bft) 96,23 %
14.12.2018 23:38 0,9 C 0,6 C -0,6 C 76 % 1023,0 hPa 0,0 l/m 0 min 0 min 0 W/m 0,0 km/h (0 Bft) 97,56 %
14.12.2018 23:40 0,9 C 0,6 C -0,6 C 77 % 1023,0 hPa 0,0 l/m 0 min 0 min 0 W/m 3,2 km/h (1 Bft) 93,62 %
14.12.2018 23:42 0,8 C 0,6 C -0,6 C 77 % 1023,0 hPa 0,0 l/m 0 min 0 min 0 W/m 0,0 km/h (0 Bft) 97,87 %
14.12.2018 23:44 0,8 C 0,6 C -0,6 C 77 % 1023,0 hPa 0,0 l/m 0 min 0 min 0 W/m 3,2 km/h (1 Bft) 97,87 %
14.12.2018 23:46 0,8 C 0,6 C -0,6 C 76 % 1023,0 hPa 0,0 l/m 0 min 0 min 0 W/m 3,2 km/h (1 Bft) 100,00 %
14.12.2018 23:48 0,8 C 0,6 C -0,6 C 76 % 1023,0 hPa 0,0 l/m 0 min 0 min 0 W/m 3,2 km/h (1 Bft) 100,00 %
14.12.2018 23:50 0,8 C 0,6 C -0,6 C 76 % 1023,1 hPa 0,0 l/m 0 min 0 min 0 W/m 3,2 km/h (1 Bft) 100,00 %
14.12.2018 23:52 0,8 C 0,6 C -0,6 C 76 % 1023,1 hPa 0,0 l/m 0 min 0 min 0 W/m 3,2 km/h (1 Bft) 100,00 %
14.12.2018 23:54 0,8 C 0,6 C -0,6 C 76 % 1023,0 hPa 0,0 l/m 0 min 0 min 0 W/m 6,4 km/h (2 Bft) 100,00 %
14.12.2018 23:56 0,8 C 0,6 C -0,6 C 76 % 1023,1 hPa 0,0 l/m 0 min 0 min 0 W/m 6,4 km/h (2 Bft) 100,00 %
14.12.2018 23:58 0,8 C 0,6 C -0,6 C 76 % 1023,2 hPa 0,0 l/m 0 min 0 min 0 W/m 6,4 km/h (2 Bft) 100,00 %
_ Min-Zeit 04:36 00:46 00:08 23:08 04:40 - - - - 02:36 08:50
Minimum _ 0,5 C 0,0 C -0,6 C 75 % 1018,7 hPa - - - - 0,0 km/h (0 Bft) 85,11 %
_ Max-Zeit 13:14 12:24 12:24 02:58 20:28 00:00 00:00 00:00 12:10 04:04 00:04
Maximum _ 1,9 C 2,2 C 1,7 C 94 % 1023,4 hPa 0,0 l/m 0 min 0 min 67 W/m 19,3 km/h
O (3 Bft)
100,00 %
Durchschnitt _ 1,0 C 0,6 C 0,2 C 89 % 1020,8 hPa #0,0 l/m #0 min. #0 min. 30 W/m 4,4 km/h (1 Bft) 96,74 %
© 2018 W. Hausmann